Wetterdaten: aktuell Sonntag, 12.07.2020 15:25
Datum Zeit Temp. A. Boden +5cm Boden -5cm Boden -10cm Boden -20cm Feuchte A. Blattfeuchte Bodenf. -5cm Bodenf.-10cm Bodenf.-20cm Bodenf.-50cm Luftdruck Regen Wind Richtung Richtung Sonnenschein ET UV Solar Taupunkt Windchill Windben
12.07.2020 15:25 17,3 C 20,0 C 22,2 C 19,4 C 17,2 C 60 % 0 lf 127 cb 200 cb 191 cb 161 cb 1027,7 hPa 0,0 l/m 0,0 km/h (0 Bft) N-NW 345 0 min 0,000 mm 2,2 UV-I 220 W/m 9,5 C 17,3 C 0,0 km/h (0 Bft)
12.07.2020 15:23 17,4 C 20,6 C 22,2 C 19,4 C 17,2 C 61 % 0 lf 127 cb 200 cb 191 cb 161 cb 1027,7 hPa 0,0 l/m 1,2 km/h (1 Bft) N-NW 345 0 min 0,000 mm 2,1 UV-I 220 W/m 9,8 C 17,4 C 8,0 km/h (2 Bft)
12.07.2020 15:21 17,4 C 20,6 C 22,2 C 19,4 C 17,2 C 61 % 0 lf 126 cb 200 cb 191 cb 161 cb 1027,7 hPa 0,0 l/m 2,0 km/h (1 Bft) N-NW 346 0 min 0,000 mm 2,0 UV-I 214 W/m 9,8 C 17,4 C 6,4 km/h (2 Bft)
12.07.2020 15:19 17,6 C 20,6 C 22,8 C 19,4 C 17,2 C 61 % 0 lf 126 cb 200 cb 190 cb 161 cb 1027,7 hPa 0,0 l/m 3,1 km/h (1 Bft) N-NW 346 0 min 0,000 mm 1,9 UV-I 186 W/m 10,0 C 17,6 C 8,0 km/h (2 Bft)
12.07.2020 15:17 17,7 C 21,1 C 22,8 C 19,4 C 17,2 C 60 % 0 lf 125 cb 200 cb 190 cb 161 cb 1027,7 hPa 0,0 l/m 3,9 km/h (1 Bft) N 349 0 min 0,000 mm 1,9 UV-I 200 W/m 9,8 C 17,7 C 9,7 km/h (2 Bft)
12.07.2020 15:16 17,7 C 21,7 C 22,8 C 19,4 C 17,2 C 59 % 0 lf 126 cb 200 cb 190 cb 161 cb 1027,8 hPa 0,0 l/m 4,4 km/h (1 Bft) N 350 0 min 0,000 mm 1,8 UV-I 195 W/m 9,6 C 17,7 C 11,3 km/h (2 Bft)
12.07.2020 15:15 17,8 C 21,7 C 22,8 C 19,4 C 17,2 C 59 % 0 lf 125 cb 200 cb 190 cb 161 cb 1027,8 hPa 0,0 l/m 1,4 km/h (1 Bft) N 355 0 min 0,000 mm 1,7 UV-I 188 W/m 9,7 C 17,8 C 9,7 km/h (2 Bft)
12.07.2020 15:13 17,9 C 22,8 C 23,3 C 19,4 C 17,2 C 60 % 0 lf 126 cb 200 cb 190 cb 161 cb 1027,8 hPa 0,0 l/m 0,9 km/h (0 Bft) N 360 0 min 0,000 mm 1,6 UV-I 163 W/m 10,0 C 17,9 C 8,0 km/h (2 Bft)
12.07.2020 15:11 18,2 C 22,8 C 23,3 C 19,4 C 17,2 C 57 % 0 lf 124 cb 200 cb 189 cb 161 cb 1027,8 hPa 0,0 l/m 1,6 km/h (1 Bft) N 5 0 min 0,000 mm 1,5 UV-I 158 W/m 9,5 C 18,2 C 11,3 km/h (2 Bft)
12.07.2020 15:09 18,3 C 25,0 C 23,3 C 19,4 C 17,2 C 58 % 0 lf 127 cb 200 cb 189 cb 161 cb 1027,8 hPa 0,0 l/m 1,8 km/h (1 Bft) NO 47 0 min 0,000 mm 1,6 UV-I 162 W/m 9,9 C 18,3 C 8,0 km/h (2 Bft)
12.07.2020 15:07 18,6 C 25,6 C 23,9 C 19,4 C 17,2 C 57 % 0 lf 124 cb 200 cb 189 cb 161 cb 1027,7 hPa 0,0 l/m 1,5 km/h (1 Bft) NO 48 0 min 0,000 mm 1,7 UV-I 176 W/m 9,9 C 18,6 C 11,3 km/h (2 Bft)
12.07.2020 15:05 18,9 C 27,2 C 23,9 C 19,4 C 17,2 C 59 % 0 lf 125 cb 200 cb 189 cb 161 cb 1027,7 hPa 0,0 l/m 0,6 km/h (0 Bft) NO 53 0 min 0,000 mm 1,9 UV-I 188 W/m 10,7 C 18,9 C 6,4 km/h (2 Bft)
12.07.2020 15:03 18,9 C 30,6 C 23,9 C 19,4 C 17,2 C 62 % 0 lf 134 cb 200 cb 187 cb 161 cb 1027,6 hPa 0,0 l/m 3,1 km/h (1 Bft) NO 46 2 min 0,000 mm 5,3 UV-I 1018 W/m 11,5 C 18,9 C 16,1 km/h (3 Bft)
12.07.2020 15:01 18,9 C 28,9 C 23,9 C 19,4 C 17,2 C 61 % 0 lf 128 cb 200 cb 187 cb 161 cb 1027,6 hPa 0,0 l/m 5,2 km/h (1 Bft) NW 321 0 min 0,330 mm 5,5 UV-I 246 W/m 11,2 C 18,9 C 9,7 km/h (2 Bft)
12.07.2020 14:59 18,9 C 28,9 C 23,9 C 19,4 C 17,2 C 60 % 0 lf 127 cb 200 cb 187 cb 161 cb 1027,6 hPa 0,0 l/m 1,2 km/h (1 Bft) N-NW 331 0 min 0,000 mm 3,0 UV-I 246 W/m 11,0 C 18,9 C 6,4 km/h (2 Bft)
12.07.2020 14:57 18,8 C 32,8 C 23,9 C 19,4 C 17,2 C 62 % 0 lf 131 cb 200 cb 187 cb 161 cb 1027,6 hPa 0,0 l/m 0,5 km/h (0 Bft) N-NW 344 2 min 0,000 mm 3,4 UV-I 694 W/m 11,4 C 18,8 C 6,4 km/h (2 Bft)
12.07.2020 14:55 18,7 C 33,3 C 23,9 C 19,4 C 17,2 C 61 % 0 lf 138 cb 200 cb 186 cb 161 cb 1027,6 hPa 0,0 l/m 0,9 km/h (0 Bft) N-NW 344 2 min 0,000 mm 4,8 UV-I 1056 W/m 11,0 C 18,7 C 8,0 km/h (2 Bft)
12.07.2020 14:53 18,6 C 32,8 C 23,3 C 19,4 C 17,2 C 59 % 0 lf 137 cb 200 cb 186 cb 161 cb 1027,6 hPa 0,0 l/m 1,9 km/h (1 Bft) N-NW 330 2 min 0,000 mm 5,7 UV-I 1067 W/m 10,4 C 18,6 C 8,0 km/h (2 Bft)
12.07.2020 14:51 18,4 C 30,6 C 23,3 C 19,4 C 17,2 C 60 % 0 lf 131 cb 200 cb 186 cb 161 cb 1027,6 hPa 0,0 l/m 1,8 km/h (1 Bft) N-NW 334 2 min 0,000 mm 5,7 UV-I 1034 W/m 10,5 C 18,4 C 8,0 km/h (2 Bft)
12.07.2020 14:49 18,3 C 30,6 C 22,8 C 19,4 C 17,2 C 63 % 0 lf 133 cb 200 cb 186 cb 161 cb 1027,6 hPa 0,0 l/m 6,3 km/h (2 Bft) N-NO 19 2 min 0,000 mm 5,9 UV-I 1027 W/m 11,1 C 18,3 C 16,1 km/h (3 Bft)
12.07.2020 14:47 18,2 C 30,0 C 22,8 C 19,4 C 17,2 C 63 % 0 lf 131 cb 200 cb 186 cb 161 cb 1027,7 hPa 0,0 l/m 3,9 km/h (1 Bft) N-NW 340 2 min 0,000 mm 6,1 UV-I 1013 W/m 11,0 C 18,2 C 11,3 km/h (2 Bft)
12.07.2020 14:45 18,1 C 28,3 C 22,8 C 19,4 C 16,7 C 62 % 0 lf 127 cb 200 cb 186 cb 159 cb 1027,7 hPa 0,0 l/m 0,7 km/h (0 Bft) NW 317 0 min 0,000 mm 5,4 UV-I 415 W/m 10,7 C 18,1 C 6,4 km/h (2 Bft)
12.07.2020 14:43 18,1 C 28,3 C 22,8 C 19,4 C 16,7 C 63 % 0 lf 125 cb 200 cb 186 cb 159 cb 1027,7 hPa 0,0 l/m 6,5 km/h (2 Bft) NW 311 0 min 0,000 mm 4,2 UV-I 415 W/m 10,9 C 18,1 C 9,7 km/h (2 Bft)
12.07.2020 14:41 17,9 C 28,3 C 22,8 C 19,4 C 16,7 C 62 % 0 lf 125 cb 200 cb 186 cb 159 cb 1027,8 hPa 0,0 l/m 4,8 km/h (1 Bft) N-NW 330 2 min 0,000 mm 4,6 UV-I 640 W/m 10,5 C 17,9 C 8,0 km/h (2 Bft)
12.07.2020 14:39 17,8 C 30,6 C 22,2 C 19,4 C 16,7 C 64 % 0 lf 131 cb 200 cb 186 cb 159 cb 1027,8 hPa 0,0 l/m 2,0 km/h (1 Bft) N-NW 333 2 min 0,000 mm 3,4 UV-I 972 W/m 10,9 C 17,8 C 9,7 km/h (2 Bft)
12.07.2020 14:37 17,7 C 28,3 C 22,2 C 18,9 C 16,7 C 69 % 0 lf 131 cb 200 cb 184 cb 159 cb 1027,7 hPa 0,0 l/m 1,7 km/h (1 Bft) N-NW 342 2 min 0,000 mm 5,1 UV-I 997 W/m 11,9 C 17,7 C 6,4 km/h (2 Bft)
12.07.2020 14:35 17,4 C 27,2 C 22,2 C 18,9 C 16,7 C 65 % 0 lf 125 cb 200 cb 184 cb 159 cb 1027,8 hPa 0,0 l/m 0,8 km/h (0 Bft) N-NW 348 1 min 0,000 mm 4,9 UV-I 1002 W/m 10,8 C 17,4 C 3,2 km/h (1 Bft)
12.07.2020 14:34 17,4 C 26,1 C 21,7 C 18,9 C 16,7 C 65 % 0 lf 122 cb 200 cb 184 cb 159 cb 1027,8 hPa 0,0 l/m 4,0 km/h (1 Bft) N 350 1 min 0,000 mm 4,8 UV-I 1016 W/m 10,8 C 17,4 C 9,7 km/h (2 Bft)
12.07.2020 14:33 17,4 C 25,6 C 21,7 C 18,9 C 16,7 C 64 % 0 lf 122 cb 200 cb 184 cb 159 cb 1027,8 hPa 0,0 l/m 3,3 km/h (1 Bft) N-NW 329 2 min 0,000 mm 4,8 UV-I 1013 W/m 10,5 C 17,4 C 16,1 km/h (3 Bft)
12.07.2020 14:31 17,3 C 23,9 C 21,7 C 18,9 C 16,7 C 64 % 0 lf 118 cb 200 cb 184 cb 159 cb 1027,8 hPa 0,0 l/m 4,4 km/h (1 Bft) N-NW 327 0 min 0,000 mm 4,7 UV-I 364 W/m 10,4 C 17,3 C 17,7 km/h (3 Bft)
12.07.2020 14:29 17,4 C 23,9 C 21,7 C 18,9 C 16,7 C 65 % 0 lf 116 cb 200 cb 184 cb 159 cb 1027,8 hPa 0,0 l/m 2,6 km/h (1 Bft) N 360 0 min 0,000 mm 3,1 UV-I 364 W/m 10,8 C 17,4 C 11,3 km/h (2 Bft)
12.07.2020 14:27 17,3 C 24,4 C 21,7 C 18,9 C 16,7 C 65 % 0 lf 116 cb 200 cb 183 cb 159 cb 1027,9 hPa 0,0 l/m 0,7 km/h (0 Bft) N-NW 328 0 min 0,000 mm 2,9 UV-I 243 W/m 10,7 C 17,3 C 4,8 km/h (1 Bft)
12.07.2020 14:25 17,2 C 26,1 C 21,7 C 18,9 C 16,7 C 66 % 0 lf 120 cb 200 cb 183 cb 159 cb 1027,8 hPa 0,0 l/m 0,9 km/h (0 Bft) N-NW 327 2 min 0,000 mm 3,0 UV-I 954 W/m 10,8 C 17,2 C 8,0 km/h (2 Bft)
12.07.2020 14:23 17,1 C 26,7 C 21,7 C 18,9 C 16,7 C 67 % 0 lf 125 cb 200 cb 183 cb 159 cb 1027,9 hPa 0,0 l/m 1,3 km/h (1 Bft) N-NW 328 2 min 0,000 mm 5,4 UV-I 954 W/m 10,9 C 17,1 C 8,0 km/h (2 Bft)
12.07.2020 14:21 16,9 C 24,4 C 21,1 C 18,9 C 16,7 C 69 % 0 lf 123 cb 200 cb 183 cb 159 cb 1027,9 hPa 0,0 l/m 0,7 km/h (0 Bft) N-NW 340 0 min 0,000 mm 6,0 UV-I 294 W/m 11,2 C 16,9 C 6,4 km/h (2 Bft)
12.07.2020 14:19 16,8 C 21,1 C 21,1 C 18,9 C 16,7 C 65 % 0 lf 117 cb 200 cb 184 cb 159 cb 1027,9 hPa 0,0 l/m 0,1 km/h (0 Bft) NO 36 0 min 0,000 mm 4,7 UV-I 294 W/m 10,2 C 16,8 C 3,2 km/h (1 Bft)
12.07.2020 14:17 16,8 C 20,6 C 21,1 C 18,9 C 16,7 C 64 % 0 lf 116 cb 200 cb 184 cb 159 cb 1027,9 hPa 0,0 l/m 1,7 km/h (1 Bft) NO 36 0 min 0,000 mm 2,9 UV-I 294 W/m 10,0 C 16,8 C 9,7 km/h (2 Bft)
12.07.2020 14:15 16,9 C 20,6 C 21,7 C 18,9 C 16,1 C 66 % 0 lf 115 cb 200 cb 183 cb 157 cb 1027,9 hPa 0,0 l/m 0,9 km/h (0 Bft) N-NO 24 0 min 0,000 mm 2,8 UV-I 246 W/m 10,5 C 16,9 C 6,4 km/h (2 Bft)
12.07.2020 14:13 16,9 C 20,6 C 21,7 C 18,3 C 16,1 C 65 % 0 lf 114 cb 200 cb 181 cb 157 cb 1027,9 hPa 0,0 l/m 0,3 km/h (0 Bft) N-NO 33 0 min 0,000 mm 2,8 UV-I 225 W/m 10,3 C 16,9 C 4,8 km/h (1 Bft)
12.07.2020 14:11 16,9 C 20,6 C 21,7 C 18,3 C 16,1 C 65 % 0 lf 113 cb 200 cb 181 cb 157 cb 1027,9 hPa 0,0 l/m 0,2 km/h (0 Bft) N-NO 32 0 min 0,000 mm 2,5 UV-I 213 W/m 10,3 C 16,9 C 3,2 km/h (1 Bft)
12.07.2020 14:09 17,0 C 20,6 C 22,2 C 18,3 C 16,1 C 64 % 0 lf 112 cb 200 cb 181 cb 157 cb 1027,9 hPa 0,0 l/m 0,0 km/h (0 Bft) N-NO 32 0 min 0,000 mm 2,4 UV-I 195 W/m 10,1 C 17,0 C 0,0 km/h (0 Bft)
12.07.2020 14:07 17,2 C 21,1 C 22,2 C 18,3 C 16,1 C 63 % 0 lf 112 cb 200 cb 181 cb 157 cb 1027,9 hPa 0,0 l/m 1,8 km/h (1 Bft) N-NO 32 0 min 0,000 mm 2,3 UV-I 192 W/m 10,1 C 17,2 C 8,0 km/h (2 Bft)
12.07.2020 14:05 17,3 C 21,7 C 22,2 C 18,3 C 16,1 C 63 % 0 lf 111 cb 200 cb 181 cb 157 cb 1028,0 hPa 0,0 l/m 0,9 km/h (0 Bft) N-NO 30 0 min 0,000 mm 2,2 UV-I 183 W/m 10,2 C 17,3 C 6,4 km/h (2 Bft)
12.07.2020 14:03 17,4 C 22,2 C 22,8 C 18,3 C 16,1 C 64 % 0 lf 110 cb 200 cb 181 cb 157 cb 1028,1 hPa 0,0 l/m 0,8 km/h (0 Bft) N-NO 30 0 min 0,000 mm 2,0 UV-I 172 W/m 10,5 C 17,4 C 6,4 km/h (2 Bft)
12.07.2020 14:01 17,6 C 23,3 C 22,8 C 18,9 C 16,1 C 63 % 0 lf 110 cb 200 cb 183 cb 157 cb 1028,1 hPa 0,0 l/m 4,6 km/h (1 Bft) N-NO 16 0 min 0,381 mm 2,0 UV-I 185 W/m 10,5 C 17,6 C 14,5 km/h (3 Bft)
12.07.2020 13:59 17,8 C 25,0 C 23,3 C 18,9 C 16,1 C 61 % 0 lf 110 cb 200 cb 183 cb 157 cb 1028,0 hPa 0,0 l/m 0,6 km/h (0 Bft) N-NO 25 0 min 0,000 mm 2,2 UV-I 193 W/m 10,2 C 17,8 C 4,8 km/h (1 Bft)
12.07.2020 13:57 17,9 C 27,2 C 23,3 C 18,9 C 16,1 C 60 % 0 lf 111 cb 200 cb 183 cb 157 cb 1028,1 hPa 0,0 l/m 2,4 km/h (1 Bft) N-NO 20 0 min 0,000 mm 2,5 UV-I 209 W/m 10,0 C 17,9 C 9,7 km/h (2 Bft)
12.07.2020 13:55 17,9 C 29,4 C 23,3 C 18,9 C 16,1 C 59 % 0 lf 115 cb 200 cb 182 cb 157 cb 1028,0 hPa 0,0 l/m 0,0 km/h (0 Bft) N-NO 19 0 min 0,000 mm 3,1 UV-I 295 W/m 9,8 C 17,9 C 0,0 km/h (0 Bft)
12.07.2020 13:53 17,9 C 31,1 C 23,3 C 18,3 C 16,1 C 61 % 0 lf 121 cb 200 cb 181 cb 157 cb 1028,0 hPa 0,0 l/m 0,8 km/h (0 Bft) N-NO 19 2 min 0,000 mm 6,5 UV-I 1023 W/m 10,3 C 17,9 C 6,4 km/h (2 Bft)
12.07.2020 13:51 17,8 C 31,1 C 22,8 C 18,3 C 16,1 C 63 % 0 lf 121 cb 200 cb 181 cb 157 cb 1028,0 hPa 0,0 l/m 0,0 km/h (0 Bft) N-NO 24 2 min 0,000 mm 6,9 UV-I 1018 W/m 10,7 C 17,8 C 0,0 km/h (0 Bft)
12.07.2020 13:49 17,8 C 30,6 C 22,8 C 18,3 C 16,1 C 62 % 0 lf 120 cb 200 cb 181 cb 157 cb 1028,0 hPa 0,0 l/m 0,0 km/h (0 Bft) N-NO 24 2 min 0,000 mm 7,0 UV-I 984 W/m 10,4 C 17,8 C 0,0 km/h (0 Bft)
12.07.2020 13:47 17,8 C 28,9 C 22,8 C 18,3 C 16,1 C 60 % 0 lf 116 cb 200 cb 181 cb 157 cb 1028,0 hPa 0,0 l/m 0,0 km/h (0 Bft) N-NO 24 2 min 0,000 mm 7,0 UV-I 969 W/m 9,9 C 17,8 C 0,0 km/h (0 Bft)
12.07.2020 13:45 17,8 C 27,2 C 22,2 C 18,3 C 16,1 C 62 % 0 lf 112 cb 200 cb 181 cb 157 cb 1028,1 hPa 0,0 l/m 3,0 km/h (1 Bft) N-NO 24 2 min 0,000 mm 7,1 UV-I 965 W/m 10,4 C 17,8 C 17,7 km/h (3 Bft)
12.07.2020 13:43 17,8 C 26,7 C 22,8 C 18,3 C 16,1 C 61 % 0 lf 110 cb 200 cb 181 cb 157 cb 1028,0 hPa 0,0 l/m 0,6 km/h (0 Bft) N 350 2 min 0,000 mm 7,0 UV-I 988 W/m 10,2 C 17,8 C 6,4 km/h (2 Bft)
12.07.2020 13:41 17,9 C 26,1 C 22,8 C 18,3 C 16,1 C 60 % 0 lf 108 cb 200 cb 181 cb 157 cb 1028,0 hPa 0,0 l/m 0,3 km/h (0 Bft) N 350 0 min 0,000 mm 4,0 UV-I 211 W/m 10,0 C 17,9 C 6,4 km/h (2 Bft)
12.07.2020 13:39 18,1 C 29,4 C 22,8 C 18,3 C 16,1 C 63 % 0 lf 113 cb 200 cb 181 cb 157 cb 1028,1 hPa 0,0 l/m 0,1 km/h (0 Bft) N 350 0 min 0,000 mm 3,7 UV-I 178 W/m 10,9 C 18,1 C 3,2 km/h (1 Bft)
12.07.2020 13:37 18,0 C 31,7 C 22,8 C 18,3 C 16,1 C 64 % 0 lf 119 cb 200 cb 181 cb 157 cb 1028,1 hPa 0,0 l/m 3,8 km/h (1 Bft) N 349 2 min 0,000 mm 4,1 UV-I 954 W/m 11,1 C 18,0 C 11,3 km/h (2 Bft)
12.07.2020 13:35 17,8 C 31,7 C 22,2 C 18,3 C 16,1 C 64 % 0 lf 119 cb 200 cb 181 cb 157 cb 1028,0 hPa 0,0 l/m 2,7 km/h (1 Bft) N-NW 342 2 min 0,000 mm 5,6 UV-I 962 W/m 10,9 C 17,8 C 9,7 km/h (2 Bft)
12.07.2020 13:33 17,7 C 30,0 C 22,2 C 17,8 C 16,1 C 65 % 0 lf 114 cb 200 cb 179 cb 157 cb 1028,0 hPa 0,0 l/m 6,4 km/h (2 Bft) NW 321 1 min 0,000 mm 6,9 UV-I 963 W/m 11,0 C 17,7 C 11,3 km/h (2 Bft)
12.07.2020 13:32 17,7 C 30,0 C 22,2 C 17,8 C 16,1 C 63 % 0 lf 114 cb 200 cb 179 cb 157 cb 1028,1 hPa 0,0 l/m 7,1 km/h (2 Bft) N 355 1 min 0,000 mm 6,9 UV-I 962 W/m 10,6 C 17,4 C 11,3 km/h (2 Bft)
12.07.2020 13:31 17,7 C 30,0 C 22,2 C 17,8 C 16,1 C 64 % 0 lf 113 cb 200 cb 179 cb 157 cb 1028,1 hPa 0,0 l/m 3,3 km/h (1 Bft) N 360 2 min 0,000 mm 6,8 UV-I 951 W/m 10,8 C 17,7 C 9,7 km/h (2 Bft)
12.07.2020 13:29 17,6 C 31,1 C 22,2 C 17,8 C 16,1 C 64 % 0 lf 116 cb 200 cb 179 cb 157 cb 1028,1 hPa 0,0 l/m 4,7 km/h (1 Bft) N-NO 22 2 min 0,000 mm 6,9 UV-I 930 W/m 10,7 C 17,6 C 14,5 km/h (3 Bft)
12.07.2020 13:27 17,4 C 31,1 C 21,7 C 17,8 C 16,1 C 64 % 0 lf 117 cb 200 cb 180 cb 157 cb 1028,2 hPa 0,0 l/m 0,0 km/h (0 Bft) N-NW 327 2 min 0,000 mm 6,8 UV-I 918 W/m 10,5 C 17,4 C 0,0 km/h (0 Bft)
12.07.2020 13:25 17,2 C 30,6 C 21,7 C 17,8 C 16,1 C 66 % 0 lf 115 cb 200 cb 180 cb 157 cb 1028,1 hPa 0,0 l/m 2,1 km/h (1 Bft) N-NW 327 2 min 0,000 mm 6,8 UV-I 905 W/m 10,8 C 17,2 C 11,3 km/h (2 Bft)
12.07.2020 13:23 17,1 C 30,0 C 21,7 C 17,8 C 16,1 C 65 % 0 lf 114 cb 200 cb 180 cb 157 cb 1028,2 hPa 0,0 l/m 0,6 km/h (0 Bft) N-NO 27 2 min 0,000 mm 6,8 UV-I 821 W/m 10,5 C 17,1 C 6,4 km/h (2 Bft)
12.07.2020 13:21 16,9 C 30,0 C 21,1 C 17,8 C 16,1 C 64 % 0 lf 114 cb 200 cb 180 cb 157 cb 1028,1 hPa 0,0 l/m 0,1 km/h (0 Bft) N-NO 27 1 min 0,000 mm 6,8 UV-I 886 W/m 10,0 C 16,9 C 1,6 km/h (1 Bft)
12.07.2020 13:20 16,9 C 30,0 C 21,1 C 17,8 C 16,1 C 64 % 0 lf 114 cb 200 cb 180 cb 157 cb 1028,2 hPa 0,0 l/m 0,0 km/h (0 Bft) N-NO 25 1 min 0,000 mm 6,9 UV-I 886 W/m 10,0 C 16,9 C 0,0 km/h (0 Bft)
12.07.2020 13:19 16,8 C 29,4 C 21,1 C 17,8 C 15,6 C 65 % 0 lf 114 cb 200 cb 180 cb 156 cb 1028,2 hPa 0,0 l/m 1,9 km/h (1 Bft) N-NO 25 3 min 0,000 mm 6,8 UV-I 886 W/m 10,2 C 16,8 C 11,3 km/h (2 Bft)
12.07.2020 13:16 16,7 C 28,3 C 21,1 C 17,2 C 15,6 C 67 % 0 lf 112 cb 200 cb 179 cb 156 cb 1028,2 hPa 0,0 l/m 0,0 km/h (0 Bft) O-NO 67 2 min 0,000 mm 6,7 UV-I 849 W/m 10,5 C 16,7 C 0,0 km/h (0 Bft)
12.07.2020 13:14 16,7 C 26,7 C 20,6 C 17,2 C 15,6 C 68 % 0 lf 110 cb 200 cb 179 cb 156 cb 1028,2 hPa 0,0 l/m 2,7 km/h (1 Bft) O-NO 66 2 min 0,000 mm 6,7 UV-I 837 W/m 10,8 C 16,7 C 8,0 km/h (2 Bft)
12.07.2020 13:12 16,7 C 25,0 C 20,6 C 17,2 C 15,6 C 66 % 0 lf 107 cb 200 cb 179 cb 156 cb 1028,2 hPa 0,0 l/m 0,1 km/h (0 Bft) O-NO 59 2 min 0,000 mm 6,6 UV-I 830 W/m 10,3 C 16,7 C 1,6 km/h (1 Bft)
12.07.2020 13:10 16,7 C 23,3 C 20,6 C 17,2 C 15,6 C 65 % 0 lf 103 cb 200 cb 179 cb 156 cb 1028,3 hPa 0,0 l/m 0,2 km/h (0 Bft) O-NO 58 0 min 0,000 mm 6,7 UV-I 167 W/m 10,1 C 16,7 C 1,6 km/h (1 Bft)
12.07.2020 13:08 16,8 C 23,3 C 21,1 C 17,2 C 15,6 C 64 % 0 lf 102 cb 200 cb 179 cb 156 cb 1028,2 hPa 0,0 l/m 2,8 km/h (1 Bft) O-NO 59 0 min 0,000 mm 3,3 UV-I 167 W/m 10,0 C 16,8 C 9,7 km/h (2 Bft)
12.07.2020 13:06 17,0 C 25,0 C 21,1 C 17,2 C 15,6 C 64 % 0 lf 103 cb 200 cb 179 cb 156 cb 1028,3 hPa 0,0 l/m 1,0 km/h (0 Bft) N-NO 20 0 min 0,000 mm 3,1 UV-I 153 W/m 10,1 C 17,0 C 8,0 km/h (2 Bft)
12.07.2020 13:04 17,1 C 26,7 C 21,1 C 17,2 C 15,6 C 66 % 0 lf 107 cb 200 cb 179 cb 156 cb 1028,3 hPa 0,0 l/m 0,6 km/h (0 Bft) N 9 2 min 0,000 mm 4,4 UV-I 763 W/m 10,7 C 17,1 C 6,4 km/h (2 Bft)
12.07.2020 13:02 17,1 C 25,0 C 21,1 C 16,7 C 15,6 C 66 % 0 lf 102 cb 200 cb 177 cb 156 cb 1028,3 hPa 0,0 l/m 1,4 km/h (1 Bft) N-NO 14 2 min 0,000 mm 6,3 UV-I 768 W/m 10,7 C 17,1 C 8,0 km/h (2 Bft)
12.07.2020 13:00 17,1 C 26,7 C 21,1 C 16,7 C 15,6 C 65 % 0 lf 103 cb 200 cb 177 cb 156 cb 1028,3 hPa 0,0 l/m 0,0 km/h (0 Bft) N 9 0 min 0,330 mm 3,2 UV-I 181 W/m 10,5 C 17,1 C 0,0 km/h (0 Bft)
12.07.2020 12:58 17,2 C 28,9 C 21,1 C 16,7 C 15,6 C 65 % 0 lf 102 cb 200 cb 177 cb 156 cb 1028,3 hPa 0,0 l/m 0,4 km/h (0 Bft) N 9 0 min 0,000 mm 3,2 UV-I 167 W/m 10,6 C 17,2 C 4,8 km/h (1 Bft)
12.07.2020 12:56 17,1 C 28,9 C 21,1 C 16,7 C 15,6 C 67 % 0 lf 108 cb 200 cb 177 cb 156 cb 1028,3 hPa 0,0 l/m 1,7 km/h (1 Bft) N 9 2 min 0,000 mm 6,3 UV-I 807 W/m 10,9 C 17,1 C 9,7 km/h (2 Bft)
12.07.2020 12:54 17,1 C 27,8 C 21,1 C 16,7 C 15,6 C 67 % 0 lf 105 cb 200 cb 178 cb 156 cb 1028,3 hPa 0,0 l/m 1,8 km/h (1 Bft) N-NO 31 2 min 0,000 mm 6,4 UV-I 824 W/m 10,9 C 17,1 C 8,0 km/h (2 Bft)
12.07.2020 12:52 17,2 C 28,3 C 20,6 C 16,7 C 15,6 C 68 % 0 lf 106 cb 200 cb 178 cb 156 cb 1028,3 hPa 0,0 l/m 1,5 km/h (1 Bft) N-NO 12 2 min 0,000 mm 6,5 UV-I 860 W/m 11,2 C 17,2 C 9,7 km/h (2 Bft)
12.07.2020 12:50 17,2 C 28,3 C 20,6 C 16,7 C 15,6 C 66 % 0 lf 106 cb 200 cb 178 cb 156 cb 1028,3 hPa 0,0 l/m 1,0 km/h (0 Bft) NO 43 2 min 0,000 mm 6,5 UV-I 803 W/m 10,8 C 17,2 C 4,8 km/h (1 Bft)
12.07.2020 12:48 17,2 C 28,9 C 20,6 C 16,7 C 15,6 C 66 % 0 lf 107 cb 200 cb 178 cb 156 cb 1028,4 hPa 0,0 l/m 0,1 km/h (0 Bft) NO 44 1 min 0,000 mm 6,7 UV-I 939 W/m 10,8 C 17,2 C 1,6 km/h (1 Bft)
12.07.2020 12:47 17,3 C 28,9 C 20,6 C 16,7 C 15,6 C 67 % 0 lf 107 cb 200 cb 178 cb 156 cb 1028,3 hPa 0,0 l/m 1,3 km/h (1 Bft) NO 44 1 min 0,000 mm 4,3 UV-I 939 W/m 11,1 C 17,3 C 8,0 km/h (2 Bft)
12.07.2020 12:46 17,3 C 29,4 C 20,6 C 16,7 C 15,6 C 65 % 0 lf 108 cb 200 cb 177 cb 156 cb 1028,3 hPa 0,0 l/m 3,3 km/h (1 Bft) NO 45 3 min 0,000 mm 6,3 UV-I 939 W/m 10,7 C 17,3 C 9,7 km/h (2 Bft)
12.07.2020 12:43 17,3 C 30,0 C 20,0 C 16,7 C 15,6 C 68 % 0 lf 110 cb 200 cb 178 cb 156 cb 1028,3 hPa 0,0 l/m 0,9 km/h (0 Bft) N-NO 26 2 min 0,000 mm 6,6 UV-I 949 W/m 11,3 C 17,3 C 8,0 km/h (2 Bft)
12.07.2020 12:41 17,3 C 29,4 C 19,4 C 16,1 C 15,6 C 70 % 0 lf 109 cb 200 cb 176 cb 156 cb 1028,3 hPa 0,0 l/m 1,2 km/h (1 Bft) N-NO 24 2 min 0,000 mm 6,5 UV-I 993 W/m 11,8 C 17,3 C 8,0 km/h (2 Bft)
12.07.2020 12:39 17,1 C 28,9 C 18,9 C 16,1 C 15,6 C 68 % 0 lf 109 cb 200 cb 176 cb 156 cb 1028,3 hPa 0,0 l/m 0,7 km/h (0 Bft) O 90 2 min 0,000 mm 6,5 UV-I 991 W/m 11,1 C 17,1 C 4,8 km/h (1 Bft)
12.07.2020 12:37 16,9 C 28,9 C 18,9 C 16,1 C 15,6 C 69 % 0 lf 109 cb 200 cb 176 cb 156 cb 1028,3 hPa 0,0 l/m 0,0 km/h (0 Bft) SO 126 2 min 0,000 mm 6,5 UV-I 990 W/m 11,2 C 16,9 C 0,0 km/h (0 Bft)
12.07.2020 12:35 16,7 C 27,8 C 18,3 C 16,1 C 15,6 C 71 % 0 lf 108 cb 200 cb 176 cb 156 cb 1028,3 hPa 0,0 l/m 0,0 km/h (0 Bft) SO 126 2 min 0,000 mm 6,5 UV-I 976 W/m 11,4 C 16,7 C 1,6 km/h (1 Bft)
12.07.2020 12:33 16,4 C 26,1 C 18,3 C 16,1 C 15,6 C 71 % 0 lf 105 cb 200 cb 176 cb 156 cb 1028,3 hPa 0,0 l/m 0,1 km/h (0 Bft) SO 126 2 min 0,000 mm 6,4 UV-I 956 W/m 11,1 C 16,4 C 3,2 km/h (1 Bft)
12.07.2020 12:31 16,1 C 24,4 C 17,8 C 16,1 C 15,6 C 70 % 0 lf 103 cb 200 cb 176 cb 156 cb 1028,3 hPa 0,0 l/m 1,4 km/h (1 Bft) SO 126 2 min 0,000 mm 6,4 UV-I 963 W/m 10,6 C 16,1 C 6,4 km/h (2 Bft)
12.07.2020 12:29 15,8 C 22,8 C 17,2 C 16,1 C 15,0 C 71 % 0 lf 102 cb 200 cb 178 cb 154 cb 1028,3 hPa 0,0 l/m 1,8 km/h (1 Bft) O-SO 122 2 min 0,000 mm 6,4 UV-I 970 W/m 10,6 C 15,8 C 8,0 km/h (2 Bft)
12.07.2020 12:27 15,6 C 21,1 C 16,7 C 16,1 C 15,0 C 73 % 0 lf 101 cb 200 cb 178 cb 154 cb 1028,3 hPa 0,0 l/m 0,0 km/h (0 Bft) O-NO 65 2 min 0,000 mm 6,3 UV-I 974 W/m 10,8 C 15,6 C 0,0 km/h (0 Bft)
12.07.2020 12:25 15,3 C 20,0 C 16,7 C 15,6 C 15,0 C 72 % 0 lf 100 cb 200 cb 176 cb 154 cb 1028,3 hPa 0,0 l/m 0,7 km/h (0 Bft) O-NO 62 2 min 0,000 mm 6,0 UV-I 967 W/m 10,3 C 15,3 C 6,4 km/h (2 Bft)
12.07.2020 12:23 15,0 C 19,4 C 16,1 C 15,6 C 15,0 C 75 % 0 lf 100 cb 200 cb 176 cb 154 cb 1028,3 hPa 0,0 l/m 0,0 km/h (0 Bft) NO 48 0 min 0,000 mm 3,6 UV-I 250 W/m 10,6 C 15,0 C 0,0 km/h (0 Bft)
12.07.2020 12:21 14,9 C 18,9 C 16,1 C 15,6 C 15,0 C 73 % 0 lf 102 cb 200 cb 176 cb 154 cb 1028,3 hPa 0,0 l/m 0,0 km/h (0 Bft) NO 48 2 min 0,000 mm 6,1 UV-I 947 W/m 10,1 C 14,9 C 0,0 km/h (0 Bft)
12.07.2020 12:19 14,8 C 17,2 C 16,1 C 15,6 C 15,0 C 70 % 0 lf 102 cb 200 cb 176 cb 154 cb 1028,4 hPa 0,0 l/m 0,9 km/h (0 Bft) NO 48 0 min 0,000 mm 5,9 UV-I 199 W/m 9,4 C 14,8 C 6,4 km/h (2 Bft)
12.07.2020 12:17 14,8 C 16,1 C 16,1 C 15,6 C 15,0 C 71 % 0 lf 100 cb 200 cb 176 cb 154 cb 1028,5 hPa 0,0 l/m 0,6 km/h (0 Bft) NO 47 0 min 0,000 mm 3,0 UV-I 199 W/m 9,6 C 14,8 C 6,4 km/h (2 Bft)
12.07.2020 12:15 14,8 C 16,1 C 16,1 C 15,6 C 15,0 C 73 % 0 lf 100 cb 200 cb 176 cb 154 cb 1028,4 hPa 0,0 l/m 0,4 km/h (0 Bft) NO 47 0 min 0,000 mm 2,6 UV-I 132 W/m 10,0 C 14,8 C 4,8 km/h (1 Bft)
12.07.2020 12:13 14,8 C 16,1 C 16,1 C 15,6 C 15,0 C 74 % 0 lf 100 cb 200 cb 176 cb 154 cb 1028,5 hPa 0,0 l/m 0,6 km/h (0 Bft) NO 47 0 min 0,000 mm 2,4 UV-I 113 W/m 10,2 C 14,8 C 4,8 km/h (1 Bft)
12.07.2020 12:11 14,8 C 16,1 C 16,1 C 15,6 C 15,0 C 74 % 0 lf 100 cb 200 cb 176 cb 154 cb 1028,5 hPa 0,0 l/m 0,0 km/h (0 Bft) NO 46 0 min 0,000 mm 2,3 UV-I 116 W/m 10,2 C 14,8 C 0,0 km/h (0 Bft)
12.07.2020 12:09 14,8 C 16,7 C 16,1 C 15,6 C 15,0 C 73 % 0 lf 101 cb 200 cb 176 cb 154 cb 1028,5 hPa 0,0 l/m 0,0 km/h (0 Bft) NO 46 0 min 0,000 mm 2,3 UV-I 127 W/m 10,0 C 14,8 C 0,0 km/h (0 Bft)
12.07.2020 12:07 14,8 C 16,7 C 16,1 C 15,6 C 15,0 C 74 % 0 lf 100 cb 200 cb 176 cb 154 cb 1028,5 hPa 0,0 l/m 0,0 km/h (0 Bft) NO 46 0 min 0,000 mm 2,2 UV-I 141 W/m 10,2 C 14,8 C 0,0 km/h (0 Bft)
12.07.2020 12:05 14,7 C 16,7 C 16,1 C 15,6 C 15,0 C 74 % 0 lf 100 cb 200 cb 176 cb 154 cb 1028,5 hPa 0,0 l/m 0,0 km/h (0 Bft) NO 46 0 min 0,000 mm 2,1 UV-I 148 W/m 10,1 C 14,7 C 0,0 km/h (0 Bft)
12.07.2020 12:03 14,7 C 16,7 C 16,1 C 15,6 C 15,0 C 74 % 0 lf 100 cb 200 cb 176 cb 154 cb 1028,5 hPa 0,0 l/m 0,0 km/h (0 Bft) NO 46 0 min 0,000 mm 1,9 UV-I 158 W/m 10,1 C 14,7 C 0,0 km/h (0 Bft)
12.07.2020 12:01 14,7 C 16,7 C 16,1 C 15,6 C 15,0 C 74 % 0 lf 100 cb 200 cb 176 cb 154 cb 1028,5 hPa 0,0 l/m 0,0 km/h (0 Bft) NO 46 0 min 0,127 mm 1,9 UV-I 172 W/m 10,1 C 14,7 C 0,0 km/h (0 Bft)
12.07.2020 11:59 14,7 C 16,7 C 16,1 C 15,6 C 15,0 C 74 % 0 lf 100 cb 200 cb 176 cb 154 cb 1028,5 hPa 0,0 l/m 0,0 km/h (0 Bft) NO 46 0 min 0,000 mm 1,8 UV-I 165 W/m 10,1 C 14,7 C 1,6 km/h (1 Bft)
12.07.2020 11:57 14,6 C 16,1 C 16,1 C 15,6 C 15,0 C 73 % 0 lf 100 cb 200 cb 176 cb 154 cb 1028,5 hPa 0,0 l/m 0,0 km/h (0 Bft) NO 46 0 min 0,000 mm 1,8 UV-I 163 W/m 9,8 C 14,6 C 0,0 km/h (0 Bft)
12.07.2020 11:55 14,6 C 16,1 C 16,1 C 15,6 C 15,0 C 73 % 0 lf 99 cb 200 cb 176 cb 154 cb 1028,5 hPa 0,0 l/m 0,0 km/h (0 Bft) NO 46 0 min 0,000 mm 1,7 UV-I 155 W/m 9,8 C 14,6 C 0,0 km/h (0 Bft)
12.07.2020 11:53 14,6 C 16,7 C 16,1 C 15,6 C 15,0 C 73 % 0 lf 100 cb 200 cb 176 cb 154 cb 1028,6 hPa 0,0 l/m 0,0 km/h (0 Bft) NO 46 0 min 0,000 mm 1,7 UV-I 153 W/m 9,8 C 14,6 C 0,0 km/h (0 Bft)
12.07.2020 11:51 14,6 C 16,7 C 16,1 C 15,6 C 15,0 C 74 % 0 lf 100 cb 200 cb 176 cb 154 cb 1028,6 hPa 0,0 l/m 0,0 km/h (0 Bft) NO 46 0 min 0,000 mm 1,7 UV-I 156 W/m 10,0 C 14,6 C 0,0 km/h (0 Bft)
12.07.2020 11:49 14,6 C 16,7 C 16,1 C 15,6 C 15,0 C 74 % 0 lf 100 cb 200 cb 176 cb 154 cb 1028,5 hPa 0,0 l/m 2,5 km/h (1 Bft) NO 46 0 min 0,000 mm 1,8 UV-I 160 W/m 10,0 C 14,6 C 8,0 km/h (2 Bft)
12.07.2020 11:48 14,6 C 16,7 C 16,1 C 15,6 C 15,0 C 74 % 0 lf 100 cb 200 cb 176 cb 154 cb 1028,6 hPa 0,0 l/m 0,0 km/h (0 Bft) NO 46 0 min 0,000 mm 1,9 UV-I 160 W/m 10,0 C 14,6 C 0,0 km/h (0 Bft)
12.07.2020 11:47 14,6 C 16,7 C 16,1 C 15,6 C 15,0 C 74 % 0 lf 100 cb 200 cb 176 cb 154 cb 1028,6 hPa 0,0 l/m 1,0 km/h (0 Bft) NO 46 0 min 0,000 mm 1,9 UV-I 156 W/m 10,0 C 14,6 C 8,0 km/h (2 Bft)
12.07.2020 11:45 14,6 C 17,2 C 16,1 C 15,6 C 15,0 C 75 % 0 lf 101 cb 200 cb 176 cb 154 cb 1028,5 hPa 0,0 l/m 1,2 km/h (1 Bft) NO 48 0 min 0,000 mm 2,0 UV-I 155 W/m 10,2 C 14,6 C 6,4 km/h (2 Bft)
12.07.2020 11:43 14,6 C 17,2 C 16,1 C 15,6 C 15,0 C 76 % 0 lf 101 cb 200 cb 176 cb 154 cb 1028,5 hPa 0,0 l/m 1,4 km/h (1 Bft) NO 48 0 min 0,000 mm 2,1 UV-I 167 W/m 10,4 C 14,6 C 8,0 km/h (2 Bft)
12.07.2020 11:41 14,6 C 16,7 C 16,1 C 15,6 C 15,0 C 74 % 0 lf 100 cb 200 cb 176 cb 154 cb 1028,5 hPa 0,0 l/m 0,0 km/h (0 Bft) NO 49 0 min 0,000 mm 2,2 UV-I 185 W/m 10,0 C 14,6 C 1,6 km/h (1 Bft)
12.07.2020 11:39 14,6 C 16,7 C 16,1 C 15,6 C 15,0 C 76 % 0 lf 100 cb 200 cb 176 cb 154 cb 1028,5 hPa 0,0 l/m 1,9 km/h (1 Bft) NO 49 0 min 0,000 mm 2,1 UV-I 202 W/m 10,4 C 14,6 C 8,0 km/h (2 Bft)
12.07.2020 11:37 14,5 C 16,7 C 16,1 C 15,6 C 15,0 C 75 % 0 lf 100 cb 200 cb 176 cb 154 cb 1028,5 hPa 0,0 l/m 0,9 km/h (0 Bft) NO 47 0 min 0,000 mm 1,9 UV-I 183 W/m 10,1 C 14,5 C 8,0 km/h (2 Bft)
12.07.2020 11:35 14,5 C 17,2 C 16,1 C 15,6 C 15,0 C 75 % 0 lf 100 cb 200 cb 176 cb 154 cb 1028,5 hPa 0,0 l/m 0,0 km/h (0 Bft) NO 51 0 min 0,000 mm 1,8 UV-I 158 W/m 10,1 C 14,5 C 0,0 km/h (0 Bft)
12.07.2020 11:33 14,5 C 17,2 C 16,1 C 15,6 C 15,0 C 74 % 0 lf 100 cb 200 cb 176 cb 154 cb 1028,5 hPa 0,0 l/m 0,9 km/h (0 Bft) NO 50 0 min 0,000 mm 1,9 UV-I 167 W/m 9,9 C 14,5 C 6,4 km/h (2 Bft)
12.07.2020 11:31 14,5 C 17,2 C 16,1 C 15,6 C 15,0 C 73 % 0 lf 100 cb 200 cb 176 cb 154 cb 1028,5 hPa 0,0 l/m 0,3 km/h (0 Bft) NO 51 0 min 0,000 mm 2,0 UV-I 183 W/m 9,7 C 14,5 C 4,8 km/h (1 Bft)
12.07.2020 11:29 14,5 C 17,2 C 16,1 C 15,6 C 15,0 C 74 % 0 lf 100 cb 200 cb 176 cb 154 cb 1028,5 hPa 0,0 l/m 2,1 km/h (1 Bft) NO 46 0 min 0,000 mm 2,1 UV-I 193 W/m 9,9 C 14,5 C 9,7 km/h (2 Bft)
12.07.2020 11:27 14,6 C 17,2 C 16,1 C 15,6 C 15,0 C 76 % 0 lf 100 cb 200 cb 176 cb 154 cb 1028,5 hPa 0,0 l/m 0,3 km/h (0 Bft) NO 49 0 min 0,000 mm 2,2 UV-I 202 W/m 10,4 C 14,6 C 4,8 km/h (1 Bft)
12.07.2020 11:25 14,6 C 17,2 C 16,1 C 15,6 C 15,0 C 77 % 0 lf 101 cb 200 cb 176 cb 154 cb 1028,5 hPa 0,0 l/m 3,0 km/h (1 Bft) NO 49 0 min 0,000 mm 2,2 UV-I 223 W/m 10,6 C 14,6 C 14,5 km/h (3 Bft)
12.07.2020 11:23 14,5 C 17,2 C 16,1 C 15,6 C 15,0 C 76 % 0 lf 101 cb 200 cb 176 cb 154 cb 1028,5 hPa 0,0 l/m 0,0 km/h (0 Bft) NO 55 0 min 0,000 mm 1,9 UV-I 209 W/m 10,3 C 14,5 C 0,0 km/h (0 Bft)
12.07.2020 11:21 14,5 C 17,2 C 16,1 C 15,6 C 15,0 C 77 % 0 lf 100 cb 200 cb 176 cb 154 cb 1028,4 hPa 0,0 l/m 0,4 km/h (0 Bft) NO 55 0 min 0,000 mm 2,2 UV-I 179 W/m 10,5 C 14,5 C 6,4 km/h (2 Bft)
12.07.2020 11:19 14,4 C 17,2 C 16,1 C 15,6 C 15,0 C 77 % 0 lf 100 cb 200 cb 176 cb 154 cb 1028,5 hPa 0,0 l/m 2,6 km/h (1 Bft) NO 55 0 min 0,000 mm 2,8 UV-I 179 W/m 10,4 C 14,4 C 9,7 km/h (2 Bft)
12.07.2020 11:17 14,3 C 17,2 C 15,6 C 15,6 C 15,0 C 78 % 0 lf 100 cb 200 cb 176 cb 154 cb 1028,4 hPa 0,0 l/m 0,6 km/h (0 Bft) NO 40 0 min 0,000 mm 1,7 UV-I 179 W/m 10,5 C 14,3 C 8,0 km/h (2 Bft)
12.07.2020 11:15 14,2 C 17,8 C 15,6 C 15,6 C 15,0 C 78 % 0 lf 102 cb 200 cb 176 cb 154 cb 1028,4 hPa 0,0 l/m 1,9 km/h (1 Bft) NO 46 0 min 0,000 mm 1,9 UV-I 236 W/m 10,4 C 14,2 C 6,4 km/h (2 Bft)
12.07.2020 11:13 14,2 C 17,2 C 15,6 C 15,6 C 15,0 C 79 % 0 lf 101 cb 200 cb 176 cb 154 cb 1028,4 hPa 0,0 l/m 1,0 km/h (0 Bft) NO 36 0 min 0,000 mm 2,2 UV-I 236 W/m 10,6 C 14,2 C 6,4 km/h (2 Bft)
12.07.2020 11:11 14,1 C 17,2 C 15,6 C 15,6 C 15,0 C 82 % 0 lf 101 cb 200 cb 176 cb 154 cb 1028,4 hPa 0,0 l/m 0,0 km/h (0 Bft) NO 36 0 min 0,000 mm 2,1 UV-I 236 W/m 11,1 C 14,1 C 0,0 km/h (0 Bft)
12.07.2020 11:09 13,9 C 16,1 C 15,6 C 15,6 C 15,0 C 82 % 0 lf 100 cb 200 cb 176 cb 154 cb 1028,4 hPa 0,0 l/m 0,0 km/h (0 Bft) NO 36 0 min 0,000 mm 3,3 UV-I 281 W/m 10,9 C 13,9 C 0,0 km/h (0 Bft)
12.07.2020 11:07 13,9 C 15,6 C 15,6 C 15,6 C 15,0 C 82 % 0 lf 99 cb 200 cb 176 cb 154 cb 1028,4 hPa 0,0 l/m 2,4 km/h (1 Bft) NO 36 0 min 0,000 mm 1,5 UV-I 183 W/m 10,9 C 13,9 C 9,7 km/h (2 Bft)
12.07.2020 11:05 13,8 C 15,6 C 15,6 C 15,6 C 15,0 C 82 % 0 lf 100 cb 200 cb 176 cb 154 cb 1028,4 hPa 0,0 l/m 0,5 km/h (0 Bft) NO 36 0 min 0,000 mm 1,3 UV-I 183 W/m 10,8 C 13,8 C 8,0 km/h (2 Bft)
12.07.2020 11:03 13,8 C 15,6 C 15,6 C 15,6 C 15,0 C 81 % 0 lf 100 cb 200 cb 176 cb 154 cb 1028,4 hPa 0,0 l/m 0,0 km/h (0 Bft) NO 37 0 min 0,000 mm 1,1 UV-I 148 W/m 10,6 C 13,8 C 0,0 km/h (0 Bft)
12.07.2020 11:01 13,8 C 15,0 C 15,6 C 15,6 C 15,0 C 81 % 0 lf 99 cb 200 cb 176 cb 154 cb 1028,4 hPa 0,0 l/m 0,0 km/h (0 Bft) NO 37 0 min 0,127 mm 0,9 UV-I 118 W/m 10,6 C 13,8 C 0,0 km/h (0 Bft)
12.07.2020 10:59 13,7 C 15,0 C 15,6 C 15,0 C 15,0 C 81 % 0 lf 99 cb 200 cb 174 cb 154 cb 1028,4 hPa 0,0 l/m 0,6 km/h (0 Bft) NO 37 0 min 0,000 mm 0,9 UV-I 118 W/m 10,5 C 13,7 C 4,8 km/h (1 Bft)
12.07.2020 10:57 13,7 C 15,0 C 15,6 C 15,0 C 15,0 C 81 % 0 lf 99 cb 200 cb 174 cb 154 cb 1028,4 hPa 0,0 l/m 0,8 km/h (0 Bft) NO 37 0 min 0,000 mm 0,9 UV-I 121 W/m 10,5 C 13,7 C 4,8 km/h (1 Bft)
12.07.2020 10:55 13,7 C 15,0 C 15,6 C 15,0 C 15,0 C 81 % 0 lf 99 cb 200 cb 174 cb 154 cb 1028,4 hPa 0,0 l/m 2,0 km/h (1 Bft) NO 44 0 min 0,000 mm 0,9 UV-I 114 W/m 10,5 C 13,7 C 8,0 km/h (2 Bft)
12.07.2020 10:53 13,7 C 15,0 C 15,6 C 15,0 C 15,0 C 81 % 0 lf 98 cb 200 cb 174 cb 154 cb 1028,4 hPa 0,0 l/m 0,6 km/h (0 Bft) NO 44 0 min 0,000 mm 1,0 UV-I 107 W/m 10,5 C 13,7 C 4,8 km/h (1 Bft)
12.07.2020 10:51 13,8 C 15,6 C 16,1 C 15,0 C 15,0 C 80 % 0 lf 99 cb 200 cb 174 cb 154 cb 1028,4 hPa 0,0 l/m 2,4 km/h (1 Bft) NO 45 0 min 0,000 mm 1,0 UV-I 109 W/m 10,4 C 13,8 C 6,4 km/h (2 Bft)
12.07.2020 10:49 13,8 C 15,6 C 16,1 C 15,0 C 15,0 C 81 % 0 lf 98 cb 200 cb 174 cb 154 cb 1028,3 hPa 0,0 l/m 3,0 km/h (1 Bft) NO 45 0 min 0,000 mm 1,0 UV-I 123 W/m 10,6 C 13,8 C 9,7 km/h (2 Bft)
12.07.2020 10:47 13,8 C 15,6 C 16,1 C 15,0 C 15,0 C 81 % 0 lf 98 cb 200 cb 174 cb 154 cb 1028,4 hPa 0,0 l/m 0,2 km/h (0 Bft) NO 46 0 min 0,000 mm 1,1 UV-I 128 W/m 10,6 C 13,8 C 3,2 km/h (1 Bft)
12.07.2020 10:45 13,9 C 15,6 C 16,1 C 15,0 C 15,0 C 80 % 0 lf 98 cb 200 cb 174 cb 154 cb 1028,4 hPa 0,0 l/m 3,3 km/h (1 Bft) NO 46 0 min 0,000 mm 0,9 UV-I 128 W/m 10,5 C 13,9 C 9,7 km/h (2 Bft)
12.07.2020 10:43 13,9 C 15,6 C 16,1 C 15,0 C 15,0 C 80 % 0 lf 98 cb 200 cb 174 cb 154 cb 1028,5 hPa 0,0 l/m 2,4 km/h (1 Bft) NO 48 0 min 0,000 mm 0,8 UV-I 113 W/m 10,5 C 13,9 C 9,7 km/h (2 Bft)
12.07.2020 10:41 14,1 C 16,1 C 16,1 C 15,0 C 15,0 C 80 % 0 lf 99 cb 200 cb 174 cb 154 cb 1028,4 hPa 0,0 l/m 1,0 km/h (0 Bft) NO 56 0 min 0,000 mm 0,7 UV-I 114 W/m 10,7 C 14,1 C 4,8 km/h (1 Bft)
12.07.2020 10:39 14,1 C 16,1 C 16,1 C 15,0 C 15,0 C 80 % 0 lf 98 cb 200 cb 174 cb 154 cb 1028,5 hPa 0,0 l/m 0,3 km/h (0 Bft) NO 56 0 min 0,000 mm 0,7 UV-I 127 W/m 10,7 C 14,1 C 4,8 km/h (1 Bft)
12.07.2020 10:37 14,3 C 16,7 C 16,1 C 15,0 C 15,0 C 79 % 0 lf 98 cb 200 cb 174 cb 154 cb 1028,5 hPa 0,0 l/m 1,3 km/h (1 Bft) NO 56 0 min 0,000 mm 0,7 UV-I 137 W/m 10,7 C 14,3 C 6,4 km/h (2 Bft)
12.07.2020 10:35 14,4 C 16,7 C 16,1 C 15,0 C 15,0 C 80 % 0 lf 98 cb 200 cb 174 cb 154 cb 1028,5 hPa 0,0 l/m 2,0 km/h (1 Bft) O-NO 57 0 min 0,000 mm 0,6 UV-I 137 W/m 11,0 C 14,4 C 8,0 km/h (2 Bft)
12.07.2020 10:33 14,4 C 17,2 C 16,1 C 15,0 C 15,0 C 80 % 0 lf 98 cb 200 cb 174 cb 154 cb 1028,5 hPa 0,0 l/m 3,0 km/h (1 Bft) O-NO 57 0 min 0,000 mm 0,6 UV-I 148 W/m 11,0 C 14,4 C 8,0 km/h (2 Bft)
12.07.2020 10:31 14,5 C 18,3 C 16,1 C 15,0 C 15,0 C 81 % 0 lf 99 cb 200 cb 174 cb 154 cb 1028,5 hPa 0,0 l/m 3,2 km/h (1 Bft) O-NO 61 0 min 0,000 mm 0,8 UV-I 156 W/m 11,3 C 14,5 C 8,0 km/h (2 Bft)
12.07.2020 10:29 14,4 C 18,3 C 16,1 C 15,0 C 15,0 C 82 % 0 lf 99 cb 200 cb 174 cb 154 cb 1028,5 hPa 0,0 l/m 0,0 km/h (0 Bft) O-NO 71 0 min 0,000 mm 1,0 UV-I 190 W/m 11,4 C 14,4 C 0,0 km/h (0 Bft)
12.07.2020 10:27 14,3 C 18,3 C 16,1 C 15,0 C 15,0 C 82 % 0 lf 99 cb 200 cb 174 cb 154 cb 1028,4 hPa 0,0 l/m 2,3 km/h (1 Bft) O-NO 71 0 min 0,000 mm 1,2 UV-I 229 W/m 11,3 C 14,3 C 6,4 km/h (2 Bft)
12.07.2020 10:25 14,2 C 18,3 C 16,1 C 15,0 C 15,0 C 81 % 0 lf 99 cb 200 cb 174 cb 154 cb 1028,4 hPa 0,0 l/m 2,3 km/h (1 Bft) O-NO 72 2 min 0,000 mm 1,2 UV-I 381 W/m 11,0 C 14,2 C 9,7 km/h (2 Bft)
12.07.2020 10:23 14,1 C 18,3 C 16,1 C 15,0 C 15,0 C 81 % 0 lf 99 cb 200 cb 174 cb 154 cb 1028,5 hPa 0,0 l/m 1,2 km/h (1 Bft) O 81 2 min 0,000 mm 1,3 UV-I 381 W/m 10,9 C 14,1 C 8,0 km/h (2 Bft)
12.07.2020 10:21 14,0 C 18,3 C 16,1 C 15,0 C 15,0 C 82 % 0 lf 99 cb 200 cb 174 cb 154 cb 1028,4 hPa 0,0 l/m 0,8 km/h (0 Bft) O 84 0 min 0,000 mm 1,5 UV-I 274 W/m 11,0 C 14,0 C 6,4 km/h (2 Bft)
12.07.2020 10:19 13,9 C 18,3 C 16,1 C 15,0 C 14,4 C 80 % 0 lf 100 cb 200 cb 175 cb 152 cb 1028,4 hPa 0,0 l/m 2,6 km/h (1 Bft) O 86 0 min 0,000 mm 1,6 UV-I 274 W/m 10,5 C 13,9 C 8,0 km/h (2 Bft)
12.07.2020 10:17 13,9 C 18,3 C 15,6 C 15,0 C 14,4 C 81 % 0 lf 100 cb 200 cb 175 cb 152 cb 1028,4 hPa 0,0 l/m 4,7 km/h (1 Bft) O 86 0 min 0,000 mm 1,5 UV-I 260 W/m 10,7 C 13,9 C 8,0 km/h (2 Bft)
12.07.2020 10:15 13,9 C 17,8 C 15,6 C 15,0 C 14,4 C 82 % 0 lf 99 cb 200 cb 175 cb 152 cb 1028,5 hPa 0,0 l/m 2,6 km/h (1 Bft) O-NO 76 0 min 0,000 mm 1,5 UV-I 264 W/m 10,9 C 13,9 C 6,4 km/h (2 Bft)
12.07.2020 10:13 13,8 C 17,8 C 15,6 C 15,0 C 14,4 C 83 % 0 lf 99 cb 200 cb 175 cb 152 cb 1028,5 hPa 0,0 l/m 7,6 km/h (2 Bft) O-NO 76 0 min 0,000 mm 1,4 UV-I 246 W/m 11,0 C 13,1 C 11,3 km/h (2 Bft)
12.07.2020 10:11 13,7 C 17,8 C 15,6 C 15,0 C 14,4 C 84 % 0 lf 100 cb 200 cb 175 cb 152 cb 1028,5 hPa 0,0 l/m 0,8 km/h (0 Bft) O-NO 75 2 min 0,000 mm 1,8 UV-I 380 W/m 11,0 C 13,7 C 6,4 km/h (2 Bft)
12.07.2020 10:09 13,5 C 17,2 C 15,6 C 15,0 C 14,4 C 82 % 0 lf 100 cb 200 cb 175 cb 152 cb 1028,5 hPa 0,0 l/m 1,7 km/h (1 Bft) O-NO 75 2 min 0,000 mm 1,9 UV-I 476 W/m 10,5 C 13,5 C 6,4 km/h (2 Bft)
12.07.2020 10:07 13,4 C 16,7 C 15,6 C 15,0 C 14,4 C 82 % 0 lf 99 cb 200 cb 175 cb 152 cb 1028,5 hPa 0,0 l/m 0,9 km/h (0 Bft) O-NO 76 0 min 0,000 mm 1,6 UV-I 220 W/m 10,4 C 13,4 C 8,0 km/h (2 Bft)
12.07.2020 10:05 13,4 C 16,7 C 15,6 C 15,0 C 14,4 C 82 % 0 lf 99 cb 200 cb 176 cb 152 cb 1028,5 hPa 0,0 l/m 1,6 km/h (1 Bft) O-NO 74 0 min 0,000 mm 1,3 UV-I 192 W/m 10,4 C 13,4 C 8,0 km/h (2 Bft)
12.07.2020 10:03 13,4 C 16,7 C 15,6 C 15,0 C 14,4 C 81 % 0 lf 99 cb 200 cb 176 cb 152 cb 1028,5 hPa 0,0 l/m 5,1 km/h (1 Bft) O-NO 73 0 min 0,000 mm 1,3 UV-I 183 W/m 10,2 C 13,4 C 9,7 km/h (2 Bft)
12.07.2020 10:01 13,5 C 16,7 C 15,6 C 15,0 C 14,4 C 82 % 0 lf 99 cb 200 cb 176 cb 152 cb 1028,5 hPa 0,0 l/m 3,8 km/h (1 Bft) O-NO 73 0 min 0,153 mm 1,2 UV-I 169 W/m 10,5 C 13,5 C 9,7 km/h (2 Bft)
12.07.2020 09:59 13,6 C 17,2 C 15,6 C 15,0 C 14,4 C 82 % 0 lf 99 cb 200 cb 176 cb 152 cb 1028,5 hPa 0,0 l/m 0,4 km/h (0 Bft) O-NO 67 0 min 0,000 mm 1,2 UV-I 156 W/m 10,6 C 13,6 C 6,4 km/h (2 Bft)
12.07.2020 09:57 13,6 C 17,8 C 15,6 C 15,0 C 14,4 C 82 % 0 lf 100 cb 200 cb 176 cb 152 cb 1028,5 hPa 0,0 l/m 2,4 km/h (1 Bft) O-NO 67 0 min 0,000 mm 1,2 UV-I 128 W/m 10,6 C 13,6 C 8,0 km/h (2 Bft)
12.07.2020 09:55 13,7 C 18,3 C 16,1 C 15,0 C 14,4 C 81 % 0 lf 101 cb 200 cb 176 cb 152 cb 1028,4 hPa 0,0 l/m 1,3 km/h (1 Bft) O-NO 67 0 min 0,000 mm 1,2 UV-I 135 W/m 10,5 C 13,7 C 8,0 km/h (2 Bft)
12.07.2020 09:53 13,7 C 18,9 C 16,1 C 15,0 C 14,4 C 81 % 0 lf 101 cb 200 cb 176 cb 152 cb 1028,4 hPa 0,0 l/m 0,8 km/h (0 Bft) O-NO 67 0 min 0,000 mm 1,2 UV-I 135 W/m 10,5 C 13,7 C 4,8 km/h (1 Bft)
12.07.2020 09:51 13,9 C 19,4 C 16,1 C 15,0 C 14,4 C 81 % 0 lf 102 cb 200 cb 176 cb 152 cb 1028,4 hPa 0,0 l/m 0,4 km/h (0 Bft) O-NO 66 0 min 0,000 mm 1,2 UV-I 132 W/m 10,7 C 13,9 C 3,2 km/h (1 Bft)
12.07.2020 09:49 14,1 C 20,6 C 16,1 C 15,0 C 14,4 C 81 % 0 lf 103 cb 200 cb 176 cb 152 cb 1028,5 hPa 0,0 l/m 2,8 km/h (1 Bft) O-NO 66 0 min 0,000 mm 1,1 UV-I 116 W/m 10,9 C 14,1 C 9,7 km/h (2 Bft)
12.07.2020 09:47 14,2 C 22,8 C 16,1 C 15,0 C 14,4 C 82 % 0 lf 106 cb 200 cb 176 cb 152 cb 1028,5 hPa 0,0 l/m 5,7 km/h (1 Bft) O-NO 62 0 min 0,000 mm 1,2 UV-I 102 W/m 11,2 C 14,2 C 11,3 km/h (2 Bft)
12.07.2020 09:45 14,2 C 25,0 C 16,1 C 15,0 C 14,4 C 83 % 0 lf 110 cb 200 cb 177 cb 152 cb 1028,5 hPa 0,0 l/m 1,4 km/h (1 Bft) NO 43 2 min 0,000 mm 1,3 UV-I 425 W/m 11,4 C 14,2 C 8,0 km/h (2 Bft)
12.07.2020 09:43 14,1 C 26,1 C 16,1 C 15,0 C 14,4 C 82 % 0 lf 112 cb 200 cb 177 cb 152 cb 1028,5 hPa 0,0 l/m 2,5 km/h (1 Bft) O 90 2 min 0,000 mm 2,0 UV-I 425 W/m 11,1 C 14,1 C 8,0 km/h (2 Bft)
12.07.2020 09:41 14,0 C 25,6 C 16,1 C 15,0 C 14,4 C 82 % 0 lf 109 cb 200 cb 177 cb 152 cb 1028,5 hPa 0,0 l/m 3,1 km/h (1 Bft) O 94 2 min 0,000 mm 1,9 UV-I 478 W/m 11,0 C 14,0 C 9,7 km/h (2 Bft)
12.07.2020 09:39 14,0 C 25,6 C 16,1 C 15,0 C 14,4 C 82 % 0 lf 109 cb 200 cb 177 cb 152 cb 1028,4 hPa 0,0 l/m 2,8 km/h (1 Bft) O-NO 74 2 min 0,000 mm 1,6 UV-I 478 W/m 11,0 C 14,0 C 11,3 km/h (2 Bft)
12.07.2020 09:37 13,9 C 25,0 C 16,1 C 15,0 C 14,4 C 83 % 0 lf 107 cb 200 cb 177 cb 152 cb 1028,5 hPa 0,0 l/m 5,6 km/h (1 Bft) O-NO 71 0 min 0,000 mm 1,6 UV-I 306 W/m 11,1 C 13,9 C 9,7 km/h (2 Bft)
12.07.2020 09:35 13,9 C 24,4 C 16,1 C 15,0 C 14,4 C 82 % 0 lf 105 cb 200 cb 177 cb 152 cb 1028,3 hPa 0,0 l/m 1,5 km/h (1 Bft) O-NO 67 0 min 0,000 mm 2,0 UV-I 306 W/m 10,9 C 13,9 C 9,7 km/h (2 Bft)
12.07.2020 09:33 14,1 C 24,4 C 16,1 C 15,0 C 14,4 C 82 % 0 lf 105 cb 200 cb 177 cb 152 cb 1028,4 hPa 0,0 l/m 1,1 km/h (1 Bft) O-NO 70 2 min 0,000 mm 1,9 UV-I 404 W/m 11,1 C 14,1 C 8,0 km/h (2 Bft)
12.07.2020 09:31 14,1 C 23,3 C 16,1 C 15,0 C 14,4 C 81 % 0 lf 103 cb 200 cb 178 cb 152 cb 1028,3 hPa 0,0 l/m 2,3 km/h (1 Bft) O-NO 70 2 min 0,000 mm 1,8 UV-I 422 W/m 10,9 C 14,1 C 11,3 km/h (2 Bft)
12.07.2020 09:29 14,1 C 23,9 C 16,1 C 15,0 C 14,4 C 81 % 0 lf 104 cb 200 cb 178 cb 152 cb 1028,3 hPa 0,0 l/m 5,0 km/h (1 Bft) O-NO 68 2 min 0,000 mm 1,7 UV-I 316 W/m 10,9 C 14,1 C 9,7 km/h (2 Bft)
12.07.2020 09:27 14,2 C 23,3 C 16,1 C 15,0 C 14,4 C 81 % 0 lf 103 cb 200 cb 178 cb 152 cb 1028,3 hPa 0,0 l/m 6,2 km/h (2 Bft) O-NO 68 2 min 0,000 mm 1,4 UV-I 320 W/m 11,0 C 14,2 C 11,3 km/h (2 Bft)
12.07.2020 09:25 14,2 C 22,8 C 16,1 C 15,0 C 14,4 C 82 % 0 lf 101 cb 200 cb 178 cb 152 cb 1028,4 hPa 0,0 l/m 1,9 km/h (1 Bft) NO 51 2 min 0,000 mm 1,8 UV-I 436 W/m 11,2 C 14,2 C 8,0 km/h (2 Bft)
12.07.2020 09:23 14,2 C 22,2 C 16,1 C 14,4 C 14,4 C 82 % 0 lf 100 cb 200 cb 176 cb 152 cb 1028,3 hPa 0,0 l/m 1,5 km/h (1 Bft) NO 46 2 min 0,000 mm 1,1 UV-I 410 W/m 11,2 C 14,2 C 8,0 km/h (2 Bft)
12.07.2020 09:21 14,1 C 22,8 C 16,1 C 14,4 C 14,4 C 82 % 0 lf 101 cb 200 cb 176 cb 152 cb 1028,2 hPa 0,0 l/m 3,9 km/h (1 Bft) NO 46 2 min 0,000 mm 1,2 UV-I 417 W/m 11,1 C 14,1 C 12,9 km/h (3 Bft)
12.07.2020 09:19 14,0 C 22,8 C 16,1 C 14,4 C 14,4 C 82 % 0 lf 101 cb 200 cb 177 cb 152 cb 1028,3 hPa 0,0 l/m 0,8 km/h (0 Bft) NO 51 2 min 0,000 mm 1,2 UV-I 410 W/m 11,0 C 14,0 C 4,8 km/h (1 Bft)
12.07.2020 09:17 13,9 C 22,8 C 16,1 C 14,4 C 14,4 C 83 % 0 lf 101 cb 200 cb 177 cb 152 cb 1028,2 hPa 0,0 l/m 2,1 km/h (1 Bft) NO 45 2 min 0,000 mm 1,4 UV-I 390 W/m 11,1 C 13,9 C 9,7 km/h (2 Bft)
12.07.2020 09:15 13,8 C 22,8 C 16,1 C 14,4 C 14,4 C 82 % 0 lf 101 cb 200 cb 177 cb 152 cb 1028,2 hPa 0,0 l/m 1,5 km/h (1 Bft) O-NO 74 2 min 0,000 mm 1,3 UV-I 388 W/m 10,8 C 13,8 C 8,0 km/h (2 Bft)
12.07.2020 09:13 13,8 C 22,2 C 16,1 C 14,4 C 14,4 C 82 % 0 lf 100 cb 200 cb 177 cb 152 cb 1028,2 hPa 0,0 l/m 1,2 km/h (1 Bft) O-NO 70 2 min 0,000 mm 1,2 UV-I 325 W/m 10,8 C 13,8 C 4,8 km/h (1 Bft)
12.07.2020 09:11 13,8 C 22,8 C 16,1 C 14,4 C 14,4 C 82 % 0 lf 102 cb 200 cb 179 cb 152 cb 1028,2 hPa 0,0 l/m 4,0 km/h (1 Bft) O-NO 71 2 min 0,000 mm 1,4 UV-I 353 W/m 10,8 C 13,8 C 9,7 km/h (2 Bft)
12.07.2020 09:09 13,8 C 22,8 C 16,1 C 14,4 C 14,4 C 82 % 0 lf 102 cb 200 cb 179 cb 152 cb 1028,1 hPa 0,0 l/m 0,3 km/h (0 Bft) O-NO 71 2 min 0,000 mm 1,4 UV-I 369 W/m 10,8 C 13,8 C 4,8 km/h (1 Bft)
12.07.2020 09:07 13,8 C 22,2 C 15,6 C 14,4 C 14,4 C 82 % 0 lf 101 cb 200 cb 179 cb 152 cb 1028,2 hPa 0,0 l/m 3,9 km/h (1 Bft) O-NO 71 2 min 0,000 mm 1,3 UV-I 359 W/m 10,8 C 13,8 C 8,0 km/h (2 Bft)
12.07.2020 09:05 13,8 C 21,7 C 15,6 C 14,4 C 14,4 C 82 % 0 lf 100 cb 200 cb 179 cb 152 cb 1028,2 hPa 0,0 l/m 3,0 km/h (1 Bft) O-NO 67 2 min 0,000 mm 1,3 UV-I 360 W/m 10,8 C 13,8 C 9,7 km/h (2 Bft)
12.07.2020 09:03 13,8 C 21,7 C 15,6 C 14,4 C 14,4 C 83 % 0 lf 100 cb 200 cb 180 cb 152 cb 1028,2 hPa 0,0 l/m 0,0 km/h (0 Bft) NO 36 2 min 0,000 mm 1,3 UV-I 353 W/m 11,0 C 13,8 C 0,0 km/h (0 Bft)
12.07.2020 09:01 13,8 C 21,1 C 15,6 C 14,4 C 14,4 C 84 % 0 lf 99 cb 200 cb 180 cb 152 cb 1028,1 hPa 0,0 l/m 0,7 km/h (0 Bft) NO 36 2 min 0,177 mm 1,2 UV-I 360 W/m 11,1 C 13,8 C 6,4 km/h (2 Bft)
12.07.2020 08:59 13,7 C 21,1 C 15,6 C 14,4 C 14,4 C 84 % 0 lf 99 cb 200 cb 180 cb 152 cb 1028,1 hPa 0,0 l/m 1,5 km/h (1 Bft) NO 34 2 min 0,000 mm 1,2 UV-I 362 W/m 11,0 C 13,7 C 9,7 km/h (2 Bft)
12.07.2020 08:57 13,7 C 21,1 C 15,6 C 14,4 C 14,4 C 85 % 0 lf 99 cb 200 cb 180 cb 152 cb 1028,0 hPa 0,0 l/m 4,3 km/h (1 Bft) NO 38 2 min 0,000 mm 1,2 UV-I 360 W/m 11,2 C 13,7 C 12,9 km/h (3 Bft)
12.07.2020 08:55 13,6 C 20,6 C 15,0 C 14,4 C 14,4 C 86 % 0 lf 99 cb 200 cb 181 cb 152 cb 1028,1 hPa 0,0 l/m 0,0 km/h (0 Bft) N-NO 30 2 min 0,000 mm 1,1 UV-I 371 W/m 11,3 C 13,6 C 1,6 km/h (1 Bft)
12.07.2020 08:53 13,6 C 20,0 C 15,0 C 13,9 C 14,4 C 86 % 0 lf 98 cb 200 cb 179 cb 152 cb 1028,1 hPa 0,0 l/m 3,7 km/h (1 Bft) N-NO 30 2 min 0,000 mm 1,1 UV-I 371 W/m 11,3 C 13,6 C 9,7 km/h (2 Bft)
12.07.2020 08:51 13,4 C 20,0 C 15,0 C 13,9 C 14,4 C 86 % 0 lf 98 cb 200 cb 179 cb 152 cb 1028,1 hPa 0,0 l/m 0,8 km/h (0 Bft) N-NO 30 2 min 0,000 mm 1,1 UV-I 376 W/m 11,1 C 13,4 C 4,8 km/h (1 Bft)
12.07.2020 08:49 13,4 C 20,0 C 15,0 C 13,9 C 14,4 C 87 % 0 lf 98 cb 200 cb 179 cb 152 cb 1028,1 hPa 0,0 l/m 1,1 km/h (1 Bft) N-NO 30 2 min 0,000 mm 1,0 UV-I 376 W/m 11,3 C 13,4 C 6,4 km/h (2 Bft)
12.07.2020 08:47 13,4 C 20,0 C 15,0 C 13,9 C 14,4 C 87 % 0 lf 98 cb 200 cb 179 cb 152 cb 1028,1 hPa 0,0 l/m 0,0 km/h (0 Bft) N-NO 28 2 min 0,000 mm 1,0 UV-I 381 W/m 11,3 C 13,4 C 0,0 km/h (0 Bft)
12.07.2020 08:45 13,3 C 20,0 C 15,0 C 13,9 C 14,4 C 87 % 0 lf 98 cb 200 cb 180 cb 152 cb 1028,1 hPa 0,0 l/m 0,0 km/h (0 Bft) N-NO 28 2 min 0,000 mm 0,9 UV-I 383 W/m 11,2 C 13,3 C 0,0 km/h (0 Bft)
12.07.2020 08:43 13,2 C 19,4 C 14,4 C 13,9 C 14,4 C 87 % 0 lf 98 cb 200 cb 180 cb 152 cb 1028,0 hPa 0,0 l/m 2,9 km/h (1 Bft) N-NO 28 2 min 0,000 mm 0,9 UV-I 381 W/m 11,1 C 13,2 C 6,4 km/h (2 Bft)
12.07.2020 08:41 13,2 C 18,9 C 14,4 C 13,9 C 14,4 C 88 % 0 lf 96 cb 200 cb 180 cb 152 cb 1028,1 hPa 0,0 l/m 1,1 km/h (1 Bft) N-NO 25 2 min 0,000 mm 0,9 UV-I 380 W/m 11,3 C 13,2 C 8,0 km/h (2 Bft)
12.07.2020 08:39 13,1 C 18,9 C 14,4 C 13,9 C 14,4 C 88 % 0 lf 97 cb 200 cb 180 cb 152 cb 1028,0 hPa 0,0 l/m 0,6 km/h (0 Bft) N-NO 15 2 min 0,000 mm 0,8 UV-I 374 W/m 11,2 C 13,1 C 4,8 km/h (1 Bft)
12.07.2020 08:37 13,0 C 18,3 C 14,4 C 13,9 C 14,4 C 88 % 0 lf 96 cb 200 cb 181 cb 152 cb 1028,0 hPa 0,0 l/m 1,0 km/h (0 Bft) N-NO 13 2 min 0,000 mm 0,8 UV-I 371 W/m 11,1 C 13,0 C 3,2 km/h (1 Bft)
12.07.2020 08:35 12,9 C 18,9 C 13,9 C 13,9 C 14,4 C 89 % 0 lf 97 cb 200 cb 181 cb 152 cb 1028,0 hPa 0,0 l/m 2,1 km/h (1 Bft) N-NO 13 2 min 0,000 mm 0,8 UV-I 366 W/m 11,1 C 12,9 C 8,0 km/h (2 Bft)
12.07.2020 08:33 12,8 C 18,9 C 13,9 C 13,9 C 14,4 C 90 % 0 lf 97 cb 200 cb 181 cb 152 cb 1028,0 hPa 0,0 l/m 0,0 km/h (0 Bft) N-NW 335 2 min 0,000 mm 0,7 UV-I 360 W/m 11,2 C 12,8 C 1,6 km/h (1 Bft)
12.07.2020 08:31 12,8 C 18,9 C 13,9 C 13,9 C 14,4 C 91 % 0 lf 97 cb 200 cb 181 cb 152 cb 1028,0 hPa 0,0 l/m 0,5 km/h (0 Bft) N-NW 333 2 min 0,000 mm 0,7 UV-I 355 W/m 11,4 C 12,8 C 6,4 km/h (2 Bft)
12.07.2020 08:29 12,6 C 18,3 C 13,9 C 13,9 C 14,4 C 92 % 0 lf 96 cb 200 cb 182 cb 152 cb 1028,0 hPa 0,0 l/m 0,9 km/h (0 Bft) NW 321 2 min 0,000 mm 0,7 UV-I 350 W/m 11,3 C 12,6 C 4,8 km/h (1 Bft)
12.07.2020 08:27 12,3 C 17,8 C 13,3 C 13,9 C 14,4 C 92 % 0 lf 96 cb 200 cb 182 cb 152 cb 1027,9 hPa 0,0 l/m 0,0 km/h (0 Bft) NW 319 2 min 0,000 mm 0,6 UV-I 343 W/m 11,0 C 12,3 C 0,0 km/h (0 Bft)
12.07.2020 08:25 12,1 C 17,2 C 13,3 C 13,9 C 14,4 C 93 % 0 lf 96 cb 200 cb 182 cb 152 cb 1027,9 hPa 0,0 l/m 0,0 km/h (0 Bft) NW 319 2 min 0,000 mm 0,6 UV-I 339 W/m 11,0 C 12,1 C 0,0 km/h (0 Bft)
12.07.2020 08:23 11,9 C 16,7 C 13,3 C 13,9 C 14,4 C 92 % 0 lf 95 cb 200 cb 182 cb 152 cb 1027,9 hPa 0,0 l/m 0,0 km/h (0 Bft) NW 319 1 min 0,000 mm 0,6 UV-I 330 W/m 10,6 C 11,9 C 0,0 km/h (0 Bft)
12.07.2020 08:22 11,8 C 16,7 C 13,3 C 13,9 C 14,4 C 92 % 0 lf 95 cb 200 cb 184 cb 152 cb 1027,9 hPa 0,0 l/m 0,0 km/h (0 Bft) NW 318 1 min 0,000 mm 0,6 UV-I 329 W/m 10,5 C 11,8 C 0,0 km/h (0 Bft)
12.07.2020 08:21 11,8 C 16,7 C 13,3 C 13,9 C 14,4 C 92 % 0 lf 95 cb 200 cb 184 cb 152 cb 1027,9 hPa 0,0 l/m 0,0 km/h (0 Bft) NW 318 2 min 0,000 mm 0,6 UV-I 327 W/m 10,5 C 11,8 C 1,6 km/h (1 Bft)
12.07.2020 08:19 11,7 C 16,1 C 13,3 C 13,9 C 13,9 C 92 % 0 lf 94 cb 200 cb 184 cb 151 cb 1027,8 hPa 0,0 l/m 0,3 km/h (0 Bft) NW 318 2 min 0,000 mm 0,5 UV-I 318 W/m 10,4 C 11,7 C 3,2 km/h (1 Bft)
12.07.2020 08:17 11,7 C 15,6 C 12,8 C 13,9 C 13,9 C 92 % 0 lf 94 cb 200 cb 184 cb 151 cb 1027,8 hPa 0,0 l/m 0,0 km/h (0 Bft) NW 318 2 min 0,000 mm 0,5 UV-I 315 W/m 10,4 C 11,7 C 0,0 km/h (0 Bft)
12.07.2020 08:15 11,6 C 15,0 C 12,8 C 13,3 C 13,9 C 92 % 0 lf 93 cb 200 cb 183 cb 151 cb 1027,8 hPa 0,0 l/m 0,0 km/h (0 Bft) NW 318 2 min 0,000 mm 0,5 UV-I 309 W/m 10,3 C 11,6 C 0,0 km/h (0 Bft)
12.07.2020 08:13 11,6 C 14,4 C 12,8 C 13,3 C 13,9 C 92 % 0 lf 93 cb 200 cb 183 cb 151 cb 1027,8 hPa 0,0 l/m 0,0 km/h (0 Bft) NW 318 2 min 0,000 mm 0,0 UV-I 302 W/m 10,3 C 11,6 C 0,0 km/h (0 Bft)
12.07.2020 08:11 11,6 C 13,3 C 12,8 C 13,3 C 13,9 C 92 % 0 lf 91 cb 200 cb 183 cb 151 cb 1027,7 hPa 0,0 l/m 0,2 km/h (0 Bft) NW 318 2 min 0,000 mm 0,0 UV-I 299 W/m 10,3 C 11,6 C 3,2 km/h (1 Bft)
12.07.2020 08:09 11,5 C 12,8 C 12,8 C 13,3 C 13,9 C 92 % 0 lf 91 cb 200 cb 184 cb 151 cb 1027,8 hPa 0,0 l/m 0,9 km/h (0 Bft) NW 318 2 min 0,000 mm 0,0 UV-I 295 W/m 10,2 C 11,5 C 4,8 km/h (1 Bft)
12.07.2020 08:07 11,4 C 12,2 C 12,8 C 13,3 C 13,9 C 92 % 0 lf 91 cb 200 cb 184 cb 151 cb 1027,7 hPa 0,0 l/m 0,0 km/h (0 Bft) NW 318 2 min 0,000 mm 0,0 UV-I 288 W/m 10,1 C 11,4 C 0,0 km/h (0 Bft)
12.07.2020 08:05 11,4 C 11,7 C 12,2 C 13,3 C 13,9 C 93 % 0 lf 91 cb 200 cb 184 cb 151 cb 1027,8 hPa 0,0 l/m 0,0 km/h (0 Bft) NW 318 1 min 0,000 mm 0,0 UV-I 285 W/m 10,3 C 11,4 C 0,0 km/h (0 Bft)
12.07.2020 08:04 11,3 C 11,7 C 12,2 C 13,3 C 13,9 C 93 % 0 lf 91 cb 200 cb 184 cb 151 cb 1027,7 hPa 0,0 l/m 0,0 km/h (0 Bft) NW 318 1 min 0,000 mm 0,0 UV-I 281 W/m 10,2 C 11,3 C 0,0 km/h (0 Bft)
12.07.2020 08:03 11,3 C 11,7 C 12,2 C 13,3 C 13,9 C 93 % 0 lf 91 cb 200 cb 184 cb 151 cb 1027,8 hPa 0,0 l/m 0,0 km/h (0 Bft) NW 318 1 min 0,000 mm 0,0 UV-I 278 W/m 10,2 C 11,3 C 0,0 km/h (0 Bft)
12.07.2020 08:02 11,3 C 11,7 C 12,2 C 13,3 C 13,9 C 93 % 0 lf 92 cb 200 cb 184 cb 151 cb 1027,7 hPa 0,0 l/m 0,0 km/h (0 Bft) NW 318 3 min 0,077 mm 0,0 UV-I 274 W/m 10,2 C 11,3 C 0,0 km/h (0 Bft)
12.07.2020 07:59 11,3 C 11,1 C 12,2 C 13,3 C 13,9 C 93 % 0 lf 92 cb 200 cb 185 cb 151 cb 1027,7 hPa 0,0 l/m 0,0 km/h (0 Bft) NW 318 2 min 0,000 mm 0,0 UV-I 267 W/m 10,2 C 11,3 C 0,0 km/h (0 Bft)
12.07.2020 07:57 11,2 C 11,1 C 12,2 C 13,3 C 13,9 C 93 % 0 lf 93 cb 200 cb 185 cb 151 cb 1027,7 hPa 0,0 l/m 0,0 km/h (0 Bft) NW 318 2 min 0,000 mm 0,0 UV-I 264 W/m 10,1 C 11,2 C 0,0 km/h (0 Bft)
12.07.2020 07:55 11,2 C 11,1 C 12,2 C 13,3 C 13,9 C 93 % 0 lf 94 cb 200 cb 185 cb 151 cb 1027,7 hPa 0,0 l/m 0,0 km/h (0 Bft) NW 318 2 min 0,000 mm 0,0 UV-I 255 W/m 10,1 C 11,2 C 0,0 km/h (0 Bft)
12.07.2020 07:53 11,1 C 11,1 C 12,2 C 13,3 C 13,9 C 93 % 0 lf 95 cb 200 cb 185 cb 151 cb 1027,7 hPa 0,0 l/m 0,0 km/h (0 Bft) NW 318 2 min 0,000 mm 0,0 UV-I 246 W/m 10,0 C 11,1 C 0,0 km/h (0 Bft)
12.07.2020 07:51 11,1 C 11,1 C 11,7 C 13,3 C 13,9 C 93 % 0 lf 95 cb 200 cb 186 cb 151 cb 1027,6 hPa 0,0 l/m 0,0 km/h (0 Bft) NW 318 2 min 0,000 mm 0,0 UV-I 243 W/m 10,0 C 11,1 C 0,0 km/h (0 Bft)
12.07.2020 07:49 11,0 C 11,1 C 11,7 C 13,3 C 13,9 C 93 % 0 lf 96 cb 200 cb 186 cb 151 cb 1027,6 hPa 0,0 l/m 0,0 km/h (0 Bft) NW 318 2 min 0,000 mm 0,0 UV-I 236 W/m 9,9 C 11,0 C 0,0 km/h (0 Bft)
12.07.2020 07:47 11,0 C 10,6 C 11,7 C 13,3 C 13,9 C 93 % 0 lf 95 cb 200 cb 186 cb 151 cb 1027,6 hPa 0,0 l/m 0,0 km/h (0 Bft) NW 318 2 min 0,000 mm 0,0 UV-I 234 W/m 9,9 C 11,0 C 0,0 km/h (0 Bft)
12.07.2020 07:45 10,9 C 10,6 C 11,7 C 13,3 C 13,9 C 93 % 0 lf 95 cb 200 cb 186 cb 151 cb 1027,6 hPa 0,0 l/m 0,0 km/h (0 Bft) NW 318 2 min 0,000 mm 0,0 UV-I 227 W/m 9,8 C 10,9 C 0,0 km/h (0 Bft)
12.07.2020 07:43 10,9 C 10,6 C 11,7 C 13,3 C 13,9 C 93 % 0 lf 95 cb 200 cb 188 cb 151 cb 1027,6 hPa 0,0 l/m 0,0 km/h (0 Bft) NW 318 2 min 0,000 mm 0,0 UV-I 220 W/m 9,8 C 10,9 C 0,0 km/h (0 Bft)
12.07.2020 07:41 10,8 C 10,6 C 11,7 C 13,3 C 13,9 C 93 % 0 lf 95 cb 200 cb 188 cb 151 cb 1027,6 hPa 0,0 l/m 0,0 km/h (0 Bft) NW 318 2 min 0,000 mm 0,0 UV-I 216 W/m 9,7 C 10,8 C 0,0 km/h (0 Bft)
12.07.2020 07:39 10,8 C 10,6 C 11,7 C 13,3 C 13,9 C 93 % 0 lf 96 cb 200 cb 188 cb 151 cb 1027,6 hPa 0,0 l/m 0,0 km/h (0 Bft) NW 318 2 min 0,000 mm 0,0 UV-I 209 W/m 9,7 C 10,8 C 0,0 km/h (0 Bft)
12.07.2020 07:37 10,8 C 10,6 C 11,7 C 13,3 C 13,9 C 93 % 3 lf 96 cb 200 cb 188 cb 151 cb 1027,6 hPa 0,0 l/m 0,0 km/h (0 Bft) NW 318 2 min 0,000 mm 0,0 UV-I 202 W/m 9,7 C 10,8 C 0,0 km/h (0 Bft)
12.07.2020 07:35 10,8 C 10,0 C 11,7 C 13,3 C 13,9 C 93 % 10 lf 95 cb 200 cb 188 cb 151 cb 1027,5 hPa 0,0 l/m 0,0 km/h (0 Bft) NW 318 2 min 0,000 mm 0,0 UV-I 195 W/m 9,7 C 10,8 C 0,0 km/h (0 Bft)
12.07.2020 07:33 10,7 C 10,0 C 11,7 C 13,3 C 13,9 C 93 % 13 lf 95 cb 200 cb 189 cb 151 cb 1027,5 hPa 0,0 l/m 0,0 km/h (0 Bft) NW 318 2 min 0,000 mm 0,0 UV-I 190 W/m 9,6 C 10,7 C 0,0 km/h (0 Bft)
12.07.2020 07:31 10,7 C 10,0 C 11,7 C 13,3 C 14,4 C 93 % 15 lf 96 cb 200 cb 189 cb 152 cb 1027,5 hPa 0,0 l/m 0,0 km/h (0 Bft) NW 318 2 min 0,000 mm 0,0 UV-I 185 W/m 9,6 C 10,7 C 0,0 km/h (0 Bft)
12.07.2020 07:29 10,7 C 10,0 C 11,7 C 13,3 C 14,4 C 93 % 15 lf 96 cb 200 cb 189 cb 152 cb 1027,5 hPa 0,0 l/m 0,0 km/h (0 Bft) NW 318 2 min 0,000 mm 0,0 UV-I 179 W/m 9,6 C 10,7 C 0,0 km/h (0 Bft)
12.07.2020 07:27 10,7 C 10,0 C 11,7 C 13,3 C 14,4 C 94 % 15 lf 96 cb 200 cb 189 cb 152 cb 1027,5 hPa 0,0 l/m 0,0 km/h (0 Bft) NW 318 2 min 0,000 mm 0,0 UV-I 176 W/m 9,8 C 10,7 C 0,0 km/h (0 Bft)
12.07.2020 07:25 10,7 C 10,0 C 11,7 C 13,3 C 14,4 C 94 % 15 lf 96 cb 200 cb 189 cb 152 cb 1027,5 hPa 0,0 l/m 0,0 km/h (0 Bft) NW 318 2 min 0,000 mm 0,0 UV-I 169 W/m 9,8 C 10,7 C 0,0 km/h (0 Bft)
12.07.2020 07:23 10,7 C 10,0 C 11,7 C 13,3 C 14,4 C 94 % 15 lf 96 cb 200 cb 189 cb 152 cb 1027,5 hPa 0,0 l/m 0,0 km/h (0 Bft) NW 318 2 min 0,000 mm 0,0 UV-I 163 W/m 9,8 C 10,7 C 0,0 km/h (0 Bft)
12.07.2020 07:21 10,7 C 9,4 C 11,7 C 13,3 C 14,4 C 94 % 15 lf 95 cb 200 cb 190 cb 152 cb 1027,5 hPa 0,0 l/m 0,0 km/h (0 Bft) NW 318 2 min 0,000 mm 0,0 UV-I 162 W/m 9,8 C 10,7 C 0,0 km/h (0 Bft)
12.07.2020 07:19 10,6 C 9,4 C 11,7 C 13,3 C 14,4 C 94 % 15 lf 95 cb 200 cb 190 cb 152 cb 1027,5 hPa 0,0 l/m 0,0 km/h (0 Bft) NW 318 2 min 0,000 mm 0,0 UV-I 155 W/m 9,7 C 10,6 C 0,0 km/h (0 Bft)
12.07.2020 07:17 10,5 C 9,4 C 11,7 C 13,3 C 14,4 C 94 % 15 lf 95 cb 200 cb 190 cb 152 cb 1027,5 hPa 0,0 l/m 0,0 km/h (0 Bft) NW 318 2 min 0,000 mm 0,0 UV-I 153 W/m 9,6 C 10,5 C 0,0 km/h (0 Bft)
12.07.2020 07:15 10,4 C 9,4 C 11,7 C 13,3 C 14,4 C 94 % 15 lf 96 cb 200 cb 190 cb 152 cb 1027,5 hPa 0,0 l/m 0,0 km/h (0 Bft) NW 318 2 min 0,000 mm 0,0 UV-I 148 W/m 9,5 C 10,4 C 0,0 km/h (0 Bft)
12.07.2020 07:13 10,4 C 9,4 C 11,7 C 13,3 C 14,4 C 94 % 15 lf 96 cb 200 cb 191 cb 152 cb 1027,4 hPa 0,0 l/m 0,0 km/h (0 Bft) NW 318 2 min 0,000 mm 0,0 UV-I 142 W/m 9,5 C 10,4 C 0,0 km/h (0 Bft)
12.07.2020 07:11 10,3 C 9,4 C 11,7 C 13,3 C 14,4 C 94 % 15 lf 96 cb 200 cb 191 cb 152 cb 1027,4 hPa 0,0 l/m 0,0 km/h (0 Bft) NW 318 2 min 0,000 mm 0,0 UV-I 139 W/m 9,4 C 10,3 C 0,0 km/h (0 Bft)
12.07.2020 07:09 10,3 C 8,9 C 11,7 C 13,3 C 14,4 C 94 % 15 lf 95 cb 200 cb 191 cb 152 cb 1027,4 hPa 0,0 l/m 0,0 km/h (0 Bft) NW 318 2 min 0,000 mm 0,0 UV-I 135 W/m 9,4 C 10,3 C 0,0 km/h (0 Bft)
12.07.2020 07:07 10,3 C 8,9 C 11,7 C 13,3 C 14,4 C 95 % 15 lf 95 cb 200 cb 191 cb 152 cb 1027,4 hPa 0,0 l/m 0,0 km/h (0 Bft) NW 318 2 min 0,000 mm 0,0 UV-I 128 W/m 9,5 C 10,3 C 0,0 km/h (0 Bft)
12.07.2020 07:05 10,3 C 8,9 C 11,7 C 13,3 C 14,4 C 95 % 15 lf 95 cb 200 cb 191 cb 152 cb 1027,3 hPa 0,0 l/m 0,0 km/h (0 Bft) NW 318 2 min 0,000 mm 0,0 UV-I 125 W/m 9,5 C 10,3 C 0,0 km/h (0 Bft)
12.07.2020 07:03 10,3 C 8,9 C 11,7 C 13,3 C 14,4 C 95 % 15 lf 95 cb 200 cb 192 cb 152 cb 1027,3 hPa 0,0 l/m 0,0 km/h (0 Bft) NW 318 2 min 0,000 mm 0,0 UV-I 118 W/m 9,5 C 10,3 C 0,0 km/h (0 Bft)
12.07.2020 07:01 10,2 C 8,9 C 11,1 C 13,3 C 14,4 C 95 % 15 lf 95 cb 200 cb 192 cb 152 cb 1027,3 hPa 0,0 l/m 0,0 km/h (0 Bft) NW 318 2 min 0,025 mm 0,0 UV-I 113 W/m 9,4 C 10,2 C 0,0 km/h (0 Bft)
12.07.2020 06:59 10,2 C 8,9 C 11,1 C 13,3 C 14,4 C 95 % 15 lf 95 cb 200 cb 192 cb 152 cb 1027,3 hPa 0,0 l/m 0,0 km/h (0 Bft) NW 318 2 min 0,000 mm 0,0 UV-I 109 W/m 9,4 C 10,2 C 0,0 km/h (0 Bft)
12.07.2020 06:57 10,0 C 8,9 C 11,1 C 13,3 C 14,4 C 95 % 15 lf 96 cb 200 cb 192 cb 152 cb 1027,3 hPa 0,0 l/m 0,0 km/h (0 Bft) NW 318 2 min 0,000 mm 0,0 UV-I 102 W/m 9,2 C 10,0 C 0,0 km/h (0 Bft)
12.07.2020 06:55 9,8 C 8,9 C 11,1 C 13,3 C 14,4 C 95 % 15 lf 96 cb 200 cb 192 cb 152 cb 1027,3 hPa 0,0 l/m 0,0 km/h (0 Bft) NW 318 2 min 0,000 mm 0,0 UV-I 98 W/m 9,0 C 9,8 C 0,0 km/h (0 Bft)
12.07.2020 06:53 9,7 C 8,9 C 11,1 C 13,3 C 14,4 C 95 % 15 lf 96 cb 200 cb 192 cb 152 cb 1027,3 hPa 0,0 l/m 0,0 km/h (0 Bft) NW 318 2 min 0,000 mm 0,0 UV-I 95 W/m 8,9 C 9,7 C 0,0 km/h (0 Bft)
12.07.2020 06:51 9,6 C 8,9 C 11,1 C 13,3 C 14,4 C 95 % 15 lf 96 cb 200 cb 194 cb 152 cb 1027,3 hPa 0,0 l/m 0,0 km/h (0 Bft) NW 318 2 min 0,000 mm 0,0 UV-I 90 W/m 8,8 C 9,6 C 0,0 km/h (0 Bft)
12.07.2020 06:49 9,5 C 8,3 C 11,1 C 13,3 C 14,4 C 95 % 15 lf 95 cb 200 cb 194 cb 152 cb 1027,3 hPa 0,0 l/m 0,0 km/h (0 Bft) NW 318 2 min 0,000 mm 0,0 UV-I 86 W/m 8,7 C 9,5 C 0,0 km/h (0 Bft)
12.07.2020 06:47 9,4 C 8,3 C 11,1 C 13,3 C 14,4 C 95 % 15 lf 95 cb 200 cb 194 cb 152 cb 1027,3 hPa 0,0 l/m 0,0 km/h (0 Bft) NW 318 0 min 0,000 mm 0,0 UV-I 81 W/m 8,6 C 9,4 C 0,0 km/h (0 Bft)
12.07.2020 06:45 9,4 C 8,3 C 11,1 C 13,3 C 14,4 C 95 % 15 lf 95 cb 200 cb 194 cb 152 cb 1027,3 hPa 0,0 l/m 0,0 km/h (0 Bft) NW 318 0 min 0,000 mm 0,0 UV-I 77 W/m 8,6 C 9,4 C 0,0 km/h (0 Bft)
12.07.2020 06:43 9,3 C 8,3 C 11,1 C 13,3 C 14,4 C 95 % 15 lf 95 cb 200 cb 194 cb 152 cb 1027,2 hPa 0,0 l/m 0,0 km/h (0 Bft) NW 318 0 min 0,000 mm 0,0 UV-I 74 W/m 8,5 C 9,3 C 0,0 km/h (0 Bft)
12.07.2020 06:41 9,2 C 8,3 C 11,1 C 13,3 C 14,4 C 95 % 15 lf 95 cb 200 cb 195 cb 152 cb 1027,3 hPa 0,0 l/m 0,0 km/h (0 Bft) NW 318 0 min 0,000 mm 0,0 UV-I 70 W/m 8,4 C 9,2 C 0,0 km/h (0 Bft)
12.07.2020 06:39 9,2 C 8,3 C 11,1 C 13,3 C 14,4 C 95 % 15 lf 96 cb 200 cb 195 cb 152 cb 1027,3 hPa 0,0 l/m 0,0 km/h (0 Bft) NW 318 0 min 0,000 mm 0,0 UV-I 65 W/m 8,4 C 9,2 C 0,0 km/h (0 Bft)
12.07.2020 06:37 9,1 C 8,3 C 11,1 C 13,3 C 14,4 C 95 % 15 lf 96 cb 200 cb 195 cb 152 cb 1027,3 hPa 0,0 l/m 0,0 km/h (0 Bft) NW 318 0 min 0,000 mm 0,0 UV-I 62 W/m 8,3 C 9,1 C 0,0 km/h (0 Bft)
12.07.2020 06:35 9,1 C 8,3 C 11,1 C 13,3 C 14,4 C 95 % 15 lf 96 cb 200 cb 195 cb 152 cb 1027,3 hPa 0,0 l/m 0,0 km/h (0 Bft) NW 318 0 min 0,000 mm 0,0 UV-I 60 W/m 8,3 C 9,1 C 0,0 km/h (0 Bft)
12.07.2020 06:33 9,1 C 8,3 C 11,1 C 13,3 C 14,4 C 95 % 15 lf 96 cb 200 cb 195 cb 152 cb 1027,3 hPa 0,0 l/m 0,0 km/h (0 Bft) NW 318 0 min 0,000 mm 0,0 UV-I 54 W/m 8,3 C 9,1 C 0,0 km/h (0 Bft)
12.07.2020 06:31 9,0 C 7,8 C 11,1 C 13,3 C 14,4 C 95 % 15 lf 95 cb 200 cb 195 cb 152 cb 1027,3 hPa 0,0 l/m 0,0 km/h (0 Bft) NW 318 0 min 0,000 mm 0,0 UV-I 53 W/m 8,2 C 9,0 C 0,0 km/h (0 Bft)
12.07.2020 06:29 8,9 C 7,8 C 11,1 C 13,3 C 14,4 C 95 % 15 lf 96 cb 200 cb 196 cb 152 cb 1027,3 hPa 0,0 l/m 0,0 km/h (0 Bft) NW 318 0 min 0,000 mm 0,0 UV-I 49 W/m 8,1 C 8,9 C 0,0 km/h (0 Bft)
12.07.2020 06:27 8,9 C 7,8 C 11,1 C 13,3 C 14,4 C 95 % 15 lf 96 cb 200 cb 196 cb 152 cb 1027,3 hPa 0,0 l/m 0,0 km/h (0 Bft) NW 318 0 min 0,000 mm 0,0 UV-I 46 W/m 8,1 C 8,9 C 0,0 km/h (0 Bft)
12.07.2020 06:25 8,9 C 7,8 C 11,1 C 13,3 C 14,4 C 95 % 15 lf 96 cb 200 cb 196 cb 152 cb 1027,2 hPa 0,0 l/m 0,0 km/h (0 Bft) NW 318 0 min 0,000 mm 0,0 UV-I 42 W/m 8,1 C 8,9 C 0,0 km/h (0 Bft)
12.07.2020 06:23 8,9 C 7,8 C 11,1 C 13,3 C 14,4 C 95 % 15 lf 96 cb 200 cb 196 cb 152 cb 1027,2 hPa 0,0 l/m 0,0 km/h (0 Bft) NW 318 0 min 0,000 mm 0,0 UV-I 40 W/m 8,1 C 8,9 C 0,0 km/h (0 Bft)
12.07.2020 06:21 8,8 C 7,8 C 11,1 C 13,3 C 14,4 C 94 % 15 lf 96 cb 200 cb 196 cb 152 cb 1027,2 hPa 0,0 l/m 0,0 km/h (0 Bft) NW 318 0 min 0,000 mm 0,0 UV-I 37 W/m 7,9 C 8,8 C 0,0 km/h (0 Bft)
12.07.2020 06:19 8,8 C 7,8 C 11,1 C 13,3 C 14,4 C 94 % 15 lf 96 cb 200 cb 198 cb 152 cb 1027,2 hPa 0,0 l/m 0,0 km/h (0 Bft) NW 318 0 min 0,000 mm 0,0 UV-I 33 W/m 7,9 C 8,8 C 0,0 km/h (0 Bft)
12.07.2020 06:17 8,8 C 7,2 C 11,1 C 13,3 C 14,4 C 94 % 15 lf 95 cb 200 cb 198 cb 152 cb 1027,2 hPa 0,0 l/m 0,0 km/h (0 Bft) NW 318 0 min 0,000 mm 0,0 UV-I 32 W/m 7,9 C 8,8 C 0,0 km/h (0 Bft)
12.07.2020 06:15 8,8 C 7,2 C 11,1 C 13,3 C 14,4 C 94 % 15 lf 95 cb 200 cb 198 cb 152 cb 1027,2 hPa 0,0 l/m 0,0 km/h (0 Bft) NW 318 0 min 0,000 mm 0,0 UV-I 28 W/m 7,9 C 8,8 C 0,0 km/h (0 Bft)
12.07.2020 06:13 8,8 C 7,2 C 11,1 C 13,3 C 14,4 C 94 % 15 lf 96 cb 200 cb 198 cb 152 cb 1027,2 hPa 0,0 l/m 0,0 km/h (0 Bft) NW 318 0 min 0,000 mm 0,0 UV-I 23 W/m 7,9 C 8,8 C 0,0 km/h (0 Bft)
12.07.2020 06:11 8,8 C 7,2 C 11,1 C 13,3 C 14,4 C 94 % 15 lf 96 cb 200 cb 198 cb 152 cb 1027,2 hPa 0,0 l/m 0,0 km/h (0 Bft) NW 318 0 min 0,000 mm 0,0 UV-I 25 W/m 7,9 C 8,8 C 0,0 km/h (0 Bft)
12.07.2020 06:09 8,8 C 7,2 C 11,1 C 13,3 C 14,4 C 94 % 15 lf 96 cb 200 cb 199 cb 152 cb 1027,2 hPa 0,0 l/m 0,0 km/h (0 Bft) NW 318 0 min 0,000 mm 0,0 UV-I 19 W/m 7,9 C 8,8 C 0,0 km/h (0 Bft)
12.07.2020 06:07 8,7 C 7,2 C 11,1 C 13,3 C 14,4 C 94 % 15 lf 96 cb 200 cb 199 cb 152 cb 1027,2 hPa 0,0 l/m 0,0 km/h (0 Bft) NW 318 0 min 0,000 mm 0,0 UV-I 18 W/m 7,8 C 8,7 C 0,0 km/h (0 Bft)
12.07.2020 06:05 8,7 C 7,2 C 11,1 C 13,3 C 14,4 C 94 % 15 lf 96 cb 200 cb 199 cb 152 cb 1027,2 hPa 0,0 l/m 0,0 km/h (0 Bft) NW 318 0 min 0,000 mm 0,0 UV-I 16 W/m 7,8 C 8,7 C 0,0 km/h (0 Bft)
12.07.2020 06:03 8,7 C 7,2 C 11,1 C 13,3 C 14,4 C 94 % 15 lf 96 cb 200 cb 199 cb 152 cb 1027,1 hPa 0,0 l/m 0,0 km/h (0 Bft) NW 318 0 min 0,000 mm 0,0 UV-I 14 W/m 7,8 C 8,7 C 0,0 km/h (0 Bft)
12.07.2020 06:01 8,7 C 7,2 C 11,1 C 13,3 C 14,4 C 94 % 15 lf 96 cb 200 cb 199 cb 152 cb 1027,1 hPa 0,0 l/m 0,0 km/h (0 Bft) NW 318 0 min 0,000 mm 0,0 UV-I 14 W/m 7,8 C 8,7 C 0,0 km/h (0 Bft)
12.07.2020 05:59 8,7 C 7,2 C 11,1 C 13,3 C 14,4 C 94 % 15 lf 96 cb 200 cb 199 cb 152 cb 1027,1 hPa 0,0 l/m 0,0 km/h (0 Bft) NW 318 0 min 0,000 mm 0,0 UV-I 12 W/m 7,8 C 8,7 C 0,0 km/h (0 Bft)
12.07.2020 05:57 8,7 C 6,7 C 11,1 C 13,3 C 14,4 C 94 % 15 lf 95 cb 200 cb 199 cb 152 cb 1027,1 hPa 0,0 l/m 0,0 km/h (0 Bft) NW 318 0 min 0,000 mm 0,0 UV-I 11 W/m 7,8 C 8,7 C 0,0 km/h (0 Bft)
12.07.2020 05:55 8,7 C 6,7 C 11,1 C 13,3 C 14,4 C 94 % 15 lf 95 cb 200 cb 200 cb 152 cb 1027,1 hPa 0,0 l/m 0,0 km/h (0 Bft) NW 318 0 min 0,000 mm 0,0 UV-I 11 W/m 7,8 C 8,7 C 0,0 km/h (0 Bft)
12.07.2020 05:53 8,7 C 6,7 C 11,1 C 13,3 C 14,4 C 94 % 15 lf 95 cb 200 cb 200 cb 152 cb 1027,0 hPa 0,0 l/m 0,0 km/h (0 Bft) NW 318 0 min 0,000 mm 0,0 UV-I 9 W/m 7,8 C 8,7 C 0,0 km/h (0 Bft)
12.07.2020 05:51 8,8 C 6,7 C 11,1 C 13,3 C 14,4 C 94 % 15 lf 95 cb 200 cb 200 cb 152 cb 1027,0 hPa 0,0 l/m 0,0 km/h (0 Bft) NW 318 0 min 0,000 mm 0,0 UV-I 7 W/m 7,9 C 8,8 C 0,0 km/h (0 Bft)
12.07.2020 05:49 8,8 C 6,7 C 11,1 C 13,3 C 14,4 C 94 % 15 lf 95 cb 200 cb 200 cb 152 cb 1027,0 hPa 0,0 l/m 0,0 km/h (0 Bft) NW 318 0 min 0,000 mm 0,0 UV-I 7 W/m 7,9 C 8,8 C 0,0 km/h (0 Bft)
12.07.2020 05:47 8,8 C 6,7 C 11,1 C 13,3 C 14,4 C 94 % 15 lf 95 cb 200 cb 200 cb 152 cb 1027,0 hPa 0,0 l/m 0,0 km/h (0 Bft) NW 318 0 min 0,000 mm 0,0 UV-I 7 W/m 7,9 C 8,8 C 0,0 km/h (0 Bft)
12.07.2020 05:45 8,8 C 6,7 C 11,1 C 13,3 C 14,4 C 94 % 15 lf 96 cb 200 cb 200 cb 152 cb 1027,0 hPa 0,0 l/m 0,0 km/h (0 Bft) NW 318 0 min 0,000 mm 0,0 UV-I 5 W/m 7,9 C 8,8 C 0,0 km/h (0 Bft)
12.07.2020 05:43 8,9 C 6,7 C 11,1 C 13,3 C 14,4 C 94 % 15 lf 95 cb 200 cb 200 cb 152 cb 1027,0 hPa 0,0 l/m 0,0 km/h (0 Bft) NW 318 0 min 0,000 mm 0,0 UV-I 5 W/m 8,0 C 8,9 C 0,0 km/h (0 Bft)
12.07.2020 05:41 8,9 C 6,7 C 11,1 C 13,3 C 14,4 C 94 % 15 lf 95 cb 200 cb 200 cb 152 cb 1027,0 hPa 0,0 l/m 0,0 km/h (0 Bft) NW 318 0 min 0,000 mm 0,0 UV-I 0 W/m 8,0 C 8,9 C 0,0 km/h (0 Bft)
12.07.2020 05:39 8,9 C 6,7 C 11,1 C 13,3 C 14,4 C 94 % 15 lf 96 cb 200 cb 200 cb 152 cb 1026,9 hPa 0,0 l/m 0,0 km/h (0 Bft) NW 318 0 min 0,000 mm 0,0 UV-I 0 W/m 8,0 C 8,9 C 0,0 km/h (0 Bft)
12.07.2020 05:37 8,9 C 6,7 C 11,1 C 13,3 C 14,4 C 94 % 15 lf 96 cb 200 cb 200 cb 152 cb 1027,0 hPa 0,0 l/m 0,0 km/h (0 Bft) NW 318 0 min 0,000 mm 0,0 UV-I 0 W/m 8,0 C 8,9 C 0,0 km/h (0 Bft)
12.07.2020 05:35 8,9 C 6,7 C 11,1 C 13,3 C 14,4 C 94 % 15 lf 96 cb 200 cb 200 cb 152 cb 1027,0 hPa 0,0 l/m 0,0 km/h (0 Bft) NW 318 0 min 0,000 mm 0,0 UV-I 0 W/m 8,0 C 8,9 C 0,0 km/h (0 Bft)
12.07.2020 05:33 8,9 C 6,7 C 11,1 C 13,3 C 14,4 C 94 % 15 lf 96 cb 200 cb 200 cb 152 cb 1027,0 hPa 0,0 l/m 0,0 km/h (0 Bft) NW 318 0 min 0,000 mm 0,0 UV-I 0 W/m 8,0 C 8,9 C 0,0 km/h (0 Bft)
12.07.2020 05:31 8,9 C 6,7 C 11,1 C 13,3 C 14,4 C 94 % 15 lf 96 cb 200 cb 200 cb 152 cb 1027,0 hPa 0,0 l/m 0,0 km/h (0 Bft) NW 318 0 min 0,000 mm 0,0 UV-I 0 W/m 8,0 C 8,9 C 0,0 km/h (0 Bft)
12.07.2020 05:29 8,9 C 6,7 C 11,1 C 13,9 C 14,4 C 94 % 15 lf 96 cb 200 cb 200 cb 152 cb 1027,0 hPa 0,0 l/m 0,0 km/h (0 Bft) NW 318 0 min 0,000 mm 0,0 UV-I 0 W/m 8,0 C 8,9 C 0,0 km/h (0 Bft)
12.07.2020 05:27 8,9 C 6,7 C 11,1 C 13,9 C 14,4 C 94 % 15 lf 96 cb 200 cb 200 cb 152 cb 1027,0 hPa 0,0 l/m 0,0 km/h (0 Bft) NW 318 0 min 0,000 mm 0,0 UV-I 0 W/m 8,0 C 8,9 C 0,0 km/h (0 Bft)
12.07.2020 05:25 8,9 C 6,7 C 11,1 C 13,9 C 14,4 C 94 % 15 lf 96 cb 200 cb 200 cb 152 cb 1027,0 hPa 0,0 l/m 0,0 km/h (0 Bft) NW 318 0 min 0,000 mm 0,0 UV-I 0 W/m 8,0 C 8,9 C 0,0 km/h (0 Bft)
12.07.2020 05:23 8,8 C 6,7 C 11,1 C 13,9 C 14,4 C 94 % 15 lf 96 cb 200 cb 200 cb 152 cb 1027,0 hPa 0,0 l/m 0,0 km/h (0 Bft) NW 318 0 min 0,000 mm 0,0 UV-I 0 W/m 7,9 C 8,8 C 0,0 km/h (0 Bft)
12.07.2020 05:21 8,9 C 6,7 C 11,1 C 13,9 C 15,0 C 94 % 15 lf 96 cb 200 cb 200 cb 154 cb 1027,0 hPa 0,0 l/m 0,0 km/h (0 Bft) NW 318 0 min 0,000 mm 0,0 UV-I 0 W/m 8,0 C 8,9 C 0,0 km/h (0 Bft)
12.07.2020 05:19 8,8 C 6,7 C 11,1 C 13,9 C 15,0 C 94 % 15 lf 96 cb 200 cb 200 cb 153 cb 1026,9 hPa 0,0 l/m 0,0 km/h (0 Bft) NW 318 0 min 0,000 mm 0,0 UV-I 0 W/m 7,9 C 8,8 C 0,0 km/h (0 Bft)
12.07.2020 05:17 8,8 C 6,7 C 11,1 C 13,9 C 15,0 C 94 % 15 lf 96 cb 200 cb 200 cb 154 cb 1026,9 hPa 0,0 l/m 0,0 km/h (0 Bft) NW 318 0 min 0,000 mm 0,0 UV-I 0 W/m 7,9 C 8,8 C 0,0 km/h (0 Bft)
12.07.2020 05:15 8,8 C 6,7 C 11,1 C 13,9 C 15,0 C 94 % 15 lf 96 cb 200 cb 200 cb 154 cb 1026,8 hPa 0,0 l/m 0,0 km/h (0 Bft) NW 318 0 min 0,000 mm 0,0 UV-I 0 W/m 7,9 C 8,8 C 0,0 km/h (0 Bft)
12.07.2020 05:13 8,8 C 6,7 C 11,1 C 13,9 C 15,0 C 94 % 15 lf 96 cb 200 cb 200 cb 154 cb 1026,8 hPa 0,0 l/m 0,0 km/h (0 Bft) NW 318 0 min 0,000 mm 0,0 UV-I 0 W/m 7,9 C 8,8 C 0,0 km/h (0 Bft)
12.07.2020 05:11 8,8 C 6,7 C 11,1 C 13,9 C 15,0 C 94 % 15 lf 96 cb 200 cb 200 cb 153 cb 1026,8 hPa 0,0 l/m 0,0 km/h (0 Bft) NW 318 0 min 0,000 mm 0,0 UV-I 0 W/m 7,9 C 8,8 C 0,0 km/h (0 Bft)
12.07.2020 05:09 8,8 C 6,7 C 11,1 C 13,9 C 15,0 C 94 % 15 lf 96 cb 200 cb 200 cb 154 cb 1026,8 hPa 0,0 l/m 0,0 km/h (0 Bft) NW 318 0 min 0,000 mm 0,0 UV-I 0 W/m 7,9 C 8,8 C 0,0 km/h (0 Bft)
12.07.2020 05:07 8,7 C 6,7 C 11,1 C 13,9 C 15,0 C 94 % 15 lf 96 cb 200 cb 200 cb 153 cb 1026,8 hPa 0,0 l/m 0,0 km/h (0 Bft) NW 318 0 min 0,000 mm 0,0 UV-I 0 W/m 7,8 C 8,7 C 0,0 km/h (0 Bft)
12.07.2020 05:05 8,7 C 6,7 C 11,1 C 13,9 C 15,0 C 94 % 15 lf 96 cb 200 cb 200 cb 153 cb 1026,8 hPa 0,0 l/m 0,0 km/h (0 Bft) NW 318 0 min 0,000 mm 0,0 UV-I 0 W/m 7,8 C 8,7 C 0,0 km/h (0 Bft)
12.07.2020 05:03 8,7 C 6,7 C 11,1 C 13,9 C 15,0 C 94 % 15 lf 96 cb 200 cb 200 cb 153 cb 1026,8 hPa 0,0 l/m 0,0 km/h (0 Bft) NW 318 0 min 0,000 mm 0,0 UV-I 0 W/m 7,8 C 8,7 C 0,0 km/h (0 Bft)
12.07.2020 05:01 8,7 C 6,7 C 11,1 C 13,9 C 15,0 C 94 % 15 lf 96 cb 200 cb 200 cb 153 cb 1026,8 hPa 0,0 l/m 0,0 km/h (0 Bft) NW 318 0 min 0,000 mm 0,0 UV-I 0 W/m 7,8 C 8,7 C 0,0 km/h (0 Bft)
12.07.2020 04:59 8,6 C 6,7 C 11,1 C 13,9 C 15,0 C 94 % 15 lf 96 cb 200 cb 200 cb 154 cb 1026,8 hPa 0,0 l/m 0,0 km/h (0 Bft) NW 318 0 min 0,000 mm 0,0 UV-I 0 W/m 7,7 C 8,6 C 0,0 km/h (0 Bft)
12.07.2020 04:57 8,6 C 6,7 C 11,1 C 13,9 C 15,0 C 94 % 15 lf 96 cb 200 cb 200 cb 154 cb 1026,8 hPa 0,0 l/m 0,0 km/h (0 Bft) NW 318 0 min 0,000 mm 0,0 UV-I 0 W/m 7,7 C 8,6 C 0,0 km/h (0 Bft)
12.07.2020 04:55 8,6 C 6,7 C 11,1 C 13,9 C 15,0 C 94 % 15 lf 96 cb 200 cb 200 cb 153 cb 1026,8 hPa 0,0 l/m 0,0 km/h (0 Bft) NW 318 0 min 0,000 mm 0,0 UV-I 0 W/m 7,7 C 8,6 C 0,0 km/h (0 Bft)
12.07.2020 04:53 8,6 C 6,7 C 11,1 C 13,9 C 15,0 C 94 % 15 lf 96 cb 200 cb 200 cb 153 cb 1026,8 hPa 0,0 l/m 0,0 km/h (0 Bft) NW 318 0 min 0,000 mm 0,0 UV-I 0 W/m 7,7 C 8,6 C 0,0 km/h (0 Bft)
12.07.2020 04:51 8,5 C 6,7 C 11,1 C 13,9 C 15,0 C 94 % 15 lf 97 cb 200 cb 200 cb 153 cb 1026,8 hPa 0,0 l/m 0,0 km/h (0 Bft) NW 318 0 min 0,000 mm 0,0 UV-I 0 W/m 7,6 C 8,5 C 0,0 km/h (0 Bft)
12.07.2020 04:49 8,5 C 6,7 C 11,1 C 13,9 C 15,0 C 94 % 15 lf 97 cb 200 cb 200 cb 153 cb 1026,8 hPa 0,0 l/m 0,0 km/h (0 Bft) NW 318 0 min 0,000 mm 0,0 UV-I 0 W/m 7,6 C 8,5 C 0,0 km/h (0 Bft)
12.07.2020 04:47 8,5 C 6,7 C 11,7 C 13,9 C 15,0 C 93 % 15 lf 97 cb 200 cb 200 cb 153 cb 1026,8 hPa 0,0 l/m 0,0 km/h (0 Bft) NW 318 0 min 0,000 mm 0,0 UV-I 0 W/m 7,4 C 8,5 C 0,0 km/h (0 Bft)
12.07.2020 04:45 8,5 C 6,7 C 11,7 C 13,9 C 15,0 C 93 % 15 lf 97 cb 200 cb 200 cb 153 cb 1026,8 hPa 0,0 l/m 0,0 km/h (0 Bft) NW 318 0 min 0,000 mm 0,0 UV-I 0 W/m 7,4 C 8,5 C 0,0 km/h (0 Bft)
12.07.2020 04:43 8,5 C 6,7 C 11,7 C 13,9 C 15,0 C 93 % 15 lf 97 cb 200 cb 200 cb 153 cb 1026,8 hPa 0,0 l/m 0,0 km/h (0 Bft) NW 318 0 min 0,000 mm 0,0 UV-I 0 W/m 7,4 C 8,5 C 0,0 km/h (0 Bft)
12.07.2020 04:41 8,6 C 6,7 C 11,7 C 13,9 C 15,0 C 93 % 15 lf 97 cb 200 cb 200 cb 153 cb 1026,7 hPa 0,0 l/m 0,0 km/h (0 Bft) NW 318 0 min 0,000 mm 0,0 UV-I 0 W/m 7,5 C 8,6 C 0,0 km/h (0 Bft)
12.07.2020 04:39 8,6 C 6,7 C 11,7 C 13,9 C 15,0 C 93 % 15 lf 97 cb 200 cb 200 cb 153 cb 1026,7 hPa 0,0 l/m 0,0 km/h (0 Bft) NW 318 0 min 0,000 mm 0,0 UV-I 0 W/m 7,5 C 8,6 C 0,0 km/h (0 Bft)
12.07.2020 04:37 8,6 C 6,7 C 11,7 C 13,9 C 15,0 C 93 % 15 lf 97 cb 200 cb 200 cb 153 cb 1026,7 hPa 0,0 l/m 0,0 km/h (0 Bft) NW 318 0 min 0,000 mm 0,0 UV-I 0 W/m 7,5 C 8,6 C 0,0 km/h (0 Bft)
12.07.2020 04:35 8,6 C 6,7 C 11,7 C 13,9 C 15,0 C 93 % 15 lf 97 cb 200 cb 200 cb 153 cb 1026,7 hPa 0,0 l/m 0,0 km/h (0 Bft) NW 318 0 min 0,000 mm 0,0 UV-I 0 W/m 7,5 C 8,6 C 0,0 km/h (0 Bft)
12.07.2020 04:33 8,6 C 6,7 C 11,7 C 13,9 C 15,0 C 93 % 15 lf 97 cb 200 cb 200 cb 153 cb 1026,7 hPa 0,0 l/m 0,0 km/h (0 Bft) NW 318 0 min 0,000 mm 0,0 UV-I 0 W/m 7,5 C 8,6 C 0,0 km/h (0 Bft)
12.07.2020 04:31 8,6 C 6,7 C 11,7 C 13,9 C 15,0 C 93 % 15 lf 97 cb 200 cb 200 cb 153 cb 1026,7 hPa 0,0 l/m 0,0 km/h (0 Bft) NW 318 0 min 0,000 mm 0,0 UV-I 0 W/m 7,5 C 8,6 C 0,0 km/h (0 Bft)
12.07.2020 04:29 8,7 C 6,7 C 11,7 C 13,9 C 15,0 C 93 % 15 lf 97 cb 200 cb 200 cb 153 cb 1026,8 hPa 0,0 l/m 0,0 km/h (0 Bft) NW 318 0 min 0,000 mm 0,0 UV-I 0 W/m 7,6 C 8,7 C 0,0 km/h (0 Bft)
12.07.2020 04:27 8,7 C 6,7 C 11,7 C 13,9 C 15,0 C 94 % 15 lf 97 cb 200 cb 200 cb 153 cb 1026,7 hPa 0,0 l/m 0,0 km/h (0 Bft) NW 318 0 min 0,000 mm 0,0 UV-I 0 W/m 7,8 C 8,7 C 0,0 km/h (0 Bft)
12.07.2020 04:25 8,6 C 6,7 C 11,7 C 13,9 C 15,0 C 93 % 14 lf 97 cb 200 cb 200 cb 153 cb 1026,8 hPa 0,0 l/m 0,0 km/h (0 Bft) NW 318 0 min 0,000 mm 0,0 UV-I 0 W/m 7,5 C 8,6 C 0,0 km/h (0 Bft)
12.07.2020 04:23 8,6 C 6,7 C 11,7 C 13,9 C 15,0 C 93 % 14 lf 97 cb 200 cb 200 cb 153 cb 1026,8 hPa 0,0 l/m 0,0 km/h (0 Bft) NW 318 0 min 0,000 mm 0,0 UV-I 0 W/m 7,5 C 8,6 C 0,0 km/h (0 Bft)
12.07.2020 04:21 8,6 C 6,7 C 11,7 C 13,9 C 15,0 C 93 % 14 lf 97 cb 200 cb 200 cb 153 cb 1026,7 hPa 0,0 l/m 0,0 km/h (0 Bft) NW 318 0 min 0,000 mm 0,0 UV-I 0 W/m 7,5 C 8,6 C 0,0 km/h (0 Bft)
12.07.2020 04:19 8,6 C 6,7 C 11,7 C 13,9 C 15,0 C 93 % 14 lf 97 cb 200 cb 200 cb 153 cb 1026,7 hPa 0,0 l/m 0,0 km/h (0 Bft) NW 318 0 min 0,000 mm 0,0 UV-I 0 W/m 7,5 C 8,6 C 0,0 km/h (0 Bft)
12.07.2020 04:17 8,6 C 6,7 C 11,7 C 13,9 C 15,0 C 93 % 14 lf 97 cb 200 cb 200 cb 153 cb 1026,7 hPa 0,0 l/m 0,0 km/h (0 Bft) NW 318 0 min 0,000 mm 0,0 UV-I 0 W/m 7,5 C 8,6 C 0,0 km/h (0 Bft)
12.07.2020 04:15 8,6 C 6,7 C 11,7 C 13,9 C 15,0 C 93 % 14 lf 97 cb 200 cb 200 cb 153 cb 1026,7 hPa 0,0 l/m 0,0 km/h (0 Bft) NW 318 0 min 0,000 mm 0,0 UV-I 0 W/m 7,5 C 8,6 C 0,0 km/h (0 Bft)
12.07.2020 04:13 8,6 C 6,7 C 11,7 C 13,9 C 15,0 C 93 % 14 lf 97 cb 200 cb 200 cb 153 cb 1026,7 hPa 0,0 l/m 0,0 km/h (0 Bft) NW 318 0 min 0,000 mm 0,0 UV-I 0 W/m 7,5 C 8,6 C 0,0 km/h (0 Bft)
12.07.2020 04:11 8,6 C 6,7 C 11,7 C 13,9 C 15,0 C 93 % 14 lf 97 cb 200 cb 200 cb 153 cb 1026,7 hPa 0,0 l/m 0,0 km/h (0 Bft) NW 318 0 min 0,000 mm 0,0 UV-I 0 W/m 7,5 C 8,6 C 0,0 km/h (0 Bft)
12.07.2020 04:09 8,6 C 6,7 C 11,7 C 13,9 C 15,0 C 93 % 14 lf 97 cb 200 cb 200 cb 153 cb 1026,7 hPa 0,0 l/m 0,0 km/h (0 Bft) NW 318 0 min 0,000 mm 0,0 UV-I 0 W/m 7,5 C 8,6 C 0,0 km/h (0 Bft)
12.07.2020 04:07 8,6 C 6,7 C 11,7 C 13,9 C 15,0 C 93 % 14 lf 97 cb 200 cb 200 cb 153 cb 1026,7 hPa 0,0 l/m 0,0 km/h (0 Bft) NW 318 0 min 0,000 mm 0,0 UV-I 0 W/m 7,5 C 8,6 C 0,0 km/h (0 Bft)
12.07.2020 04:05 8,6 C 6,7 C 11,7 C 13,9 C 15,0 C 93 % 14 lf 97 cb 200 cb 200 cb 153 cb 1026,7 hPa 0,0 l/m 0,0 km/h (0 Bft) NW 318 0 min 0,000 mm 0,0 UV-I 0 W/m 7,5 C 8,6 C 0,0 km/h (0 Bft)
12.07.2020 04:03 8,6 C 6,7 C 11,7 C 13,9 C 15,0 C 93 % 14 lf 97 cb 200 cb 200 cb 153 cb 1026,7 hPa 0,0 l/m 0,0 km/h (0 Bft) NW 318 0 min 0,000 mm 0,0 UV-I 0 W/m 7,5 C 8,6 C 0,0 km/h (0 Bft)
12.07.2020 04:01 8,6 C 6,7 C 11,7 C 13,9 C 15,0 C 93 % 13 lf 97 cb 200 cb 200 cb 153 cb 1026,7 hPa 0,0 l/m 0,0 km/h (0 Bft) NW 318 0 min 0,000 mm 0,0 UV-I 0 W/m 7,5 C 8,6 C 0,0 km/h (0 Bft)
12.07.2020 03:59 8,6 C 6,7 C 11,7 C 13,9 C 15,0 C 93 % 13 lf 97 cb 200 cb 200 cb 153 cb 1026,7 hPa 0,0 l/m 0,0 km/h (0 Bft) NW 318 0 min 0,000 mm 0,0 UV-I 0 W/m 7,5 C 8,6 C 0,0 km/h (0 Bft)
12.07.2020 03:57 8,6 C 6,7 C 11,7 C 13,9 C 15,0 C 93 % 13 lf 97 cb 200 cb 200 cb 153 cb 1026,7 hPa 0,0 l/m 0,0 km/h (0 Bft) NW 318 0 min 0,000 mm 0,0 UV-I 0 W/m 7,5 C 8,6 C 0,0 km/h (0 Bft)
12.07.2020 03:55 8,6 C 6,7 C 11,7 C 13,9 C 15,0 C 93 % 13 lf 97 cb 200 cb 200 cb 153 cb 1026,7 hPa 0,0 l/m 0,0 km/h (0 Bft) NW 318 0 min 0,000 mm 0,0 UV-I 0 W/m 7,5 C 8,6 C 0,0 km/h (0 Bft)
12.07.2020 03:53 8,6 C 6,7 C 11,7 C 13,9 C 15,0 C 93 % 13 lf 97 cb 200 cb 200 cb 153 cb 1026,7 hPa 0,0 l/m 0,0 km/h (0 Bft) NW 318 0 min 0,000 mm 0,0 UV-I 0 W/m 7,5 C 8,6 C 0,0 km/h (0 Bft)
12.07.2020 03:51 8,7 C 6,7 C 11,7 C 14,4 C 15,0 C 93 % 13 lf 97 cb 200 cb 200 cb 153 cb 1026,7 hPa 0,0 l/m 0,0 km/h (0 Bft) NW 318 0 min 0,000 mm 0,0 UV-I 0 W/m 7,6 C 8,7 C 0,0 km/h (0 Bft)
12.07.2020 03:49 8,7 C 6,7 C 11,7 C 14,4 C 15,0 C 93 % 13 lf 97 cb 200 cb 200 cb 153 cb 1026,7 hPa 0,0 l/m 0,0 km/h (0 Bft) NW 318 0 min 0,000 mm 0,0 UV-I 0 W/m 7,6 C 8,7 C 0,0 km/h (0 Bft)
12.07.2020 03:47 8,7 C 6,7 C 11,7 C 14,4 C 15,0 C 93 % 12 lf 97 cb 200 cb 200 cb 153 cb 1026,7 hPa 0,0 l/m 0,0 km/h (0 Bft) NW 318 0 min 0,000 mm 0,0 UV-I 0 W/m 7,6 C 8,7 C 0,0 km/h (0 Bft)
12.07.2020 03:45 8,7 C 6,7 C 11,7 C 14,4 C 15,0 C 93 % 12 lf 97 cb 200 cb 200 cb 153 cb 1026,8 hPa 0,0 l/m 0,0 km/h (0 Bft) NW 318 0 min 0,000 mm 0,0 UV-I 0 W/m 7,6 C 8,7 C 0,0 km/h (0 Bft)
12.07.2020 03:43 8,6 C 7,2 C 11,7 C 14,4 C 15,0 C 93 % 12 lf 98 cb 200 cb 200 cb 153 cb 1026,8 hPa 0,0 l/m 0,0 km/h (0 Bft) NW 318 0 min 0,000 mm 0,0 UV-I 0 W/m 7,5 C 8,6 C 0,0 km/h (0 Bft)
12.07.2020 03:41 8,7 C 7,2 C 11,7 C 14,4 C 15,0 C 93 % 12 lf 98 cb 200 cb 200 cb 153 cb 1026,8 hPa 0,0 l/m 0,0 km/h (0 Bft) NW 318 0 min 0,000 mm 0,0 UV-I 0 W/m 7,6 C 8,7 C 0,0 km/h (0 Bft)
12.07.2020 03:39 8,6 C 6,7 C 11,7 C 14,4 C 15,0 C 92 % 12 lf 97 cb 200 cb 200 cb 153 cb 1026,8 hPa 0,0 l/m 0,0 km/h (0 Bft) NW 318 0 min 0,000 mm 0,0 UV-I 0 W/m 7,4 C 8,6 C 0,0 km/h (0 Bft)
12.07.2020 03:37 8,6 C 6,7 C 11,7 C 14,4 C 15,0 C 92 % 12 lf 97 cb 200 cb 200 cb 153 cb 1026,8 hPa 0,0 l/m 0,0 km/h (0 Bft) NW 318 0 min 0,000 mm 0,0 UV-I 0 W/m 7,4 C 8,6 C 0,0 km/h (0 Bft)
12.07.2020 03:35 8,7 C 6,7 C 11,7 C 14,4 C 15,0 C 92 % 12 lf 97 cb 200 cb 200 cb 153 cb 1026,8 hPa 0,0 l/m 0,0 km/h (0 Bft) NW 318 0 min 0,000 mm 0,0 UV-I 0 W/m 7,5 C 8,7 C 0,0 km/h (0 Bft)
12.07.2020 03:33 8,7 C 6,7 C 11,7 C 14,4 C 15,6 C 92 % 12 lf 97 cb 200 cb 200 cb 155 cb 1026,8 hPa 0,0 l/m 0,0 km/h (0 Bft) NW 318 0 min 0,000 mm 0,0 UV-I 0 W/m 7,5 C 8,7 C 0,0 km/h (0 Bft)
12.07.2020 03:31 8,7 C 6,7 C 11,7 C 14,4 C 15,6 C 92 % 12 lf 97 cb 200 cb 200 cb 155 cb 1026,8 hPa 0,0 l/m 0,0 km/h (0 Bft) NW 318 0 min 0,000 mm 0,0 UV-I 0 W/m 7,5 C 8,7 C 0,0 km/h (0 Bft)
12.07.2020 03:29 8,7 C 6,7 C 11,7 C 14,4 C 15,6 C 92 % 12 lf 97 cb 200 cb 200 cb 155 cb 1026,8 hPa 0,0 l/m 0,0 km/h (0 Bft) NW 318 0 min 0,000 mm 0,0 UV-I 0 W/m 7,5 C 8,7 C 0,0 km/h (0 Bft)
12.07.2020 03:27 8,8 C 6,7 C 11,7 C 14,4 C 15,6 C 92 % 11 lf 97 cb 200 cb 200 cb 155 cb 1026,8 hPa 0,0 l/m 0,0 km/h (0 Bft) NW 318 0 min 0,000 mm 0,0 UV-I 0 W/m 7,6 C 8,8 C 0,0 km/h (0 Bft)
12.07.2020 03:25 8,8 C 6,7 C 11,7 C 14,4 C 15,6 C 92 % 11 lf 97 cb 200 cb 200 cb 155 cb 1026,8 hPa 0,0 l/m 0,0 km/h (0 Bft) NW 318 0 min 0,000 mm 0,0 UV-I 0 W/m 7,6 C 8,8 C 0,0 km/h (0 Bft)
12.07.2020 03:23 8,9 C 6,7 C 11,7 C 14,4 C 15,6 C 92 % 10 lf 97 cb 200 cb 200 cb 155 cb 1026,9 hPa 0,0 l/m 0,0 km/h (0 Bft) NW 318 0 min 0,000 mm 0,0 UV-I 0 W/m 7,7 C 8,9 C 0,0 km/h (0 Bft)
12.07.2020 03:21 8,9 C 7,2 C 12,2 C 14,4 C 15,6 C 92 % 10 lf 98 cb 200 cb 200 cb 155 cb 1026,8 hPa 0,0 l/m 0,0 km/h (0 Bft) NW 318 0 min 0,000 mm 0,0 UV-I 0 W/m 7,7 C 8,9 C 0,0 km/h (0 Bft)
12.07.2020 03:19 8,9 C 7,2 C 12,2 C 14,4 C 15,6 C 92 % 10 lf 98 cb 200 cb 200 cb 155 cb 1026,8 hPa 0,0 l/m 0,0 km/h (0 Bft) NW 318 0 min 0,000 mm 0,0 UV-I 0 W/m 7,7 C 8,9 C 0,0 km/h (0 Bft)
12.07.2020 03:17 8,9 C 7,2 C 12,2 C 14,4 C 15,6 C 92 % 10 lf 98 cb 200 cb 200 cb 155 cb 1026,8 hPa 0,0 l/m 0,0 km/h (0 Bft) NW 318 0 min 0,000 mm 0,0 UV-I 0 W/m 7,7 C 8,9 C 0,0 km/h (0 Bft)
12.07.2020 03:15 8,9 C 7,2 C 12,2 C 14,4 C 15,6 C 93 % 10 lf 98 cb 200 cb 200 cb 155 cb 1026,8 hPa 0,0 l/m 0,0 km/h (0 Bft) NW 318 0 min 0,000 mm 0,0 UV-I 0 W/m 7,8 C 8,9 C 0,0 km/h (0 Bft)
12.07.2020 03:13 8,9 C 7,2 C 12,2 C 14,4 C 15,6 C 93 % 10 lf 98 cb 200 cb 200 cb 155 cb 1026,8 hPa 0,0 l/m 0,0 km/h (0 Bft) NW 318 0 min 0,000 mm 0,0 UV-I 0 W/m 7,8 C 8,9 C 0,0 km/h (0 Bft)
12.07.2020 03:11 8,9 C 7,2 C 12,2 C 14,4 C 15,6 C 92 % 9 lf 98 cb 200 cb 200 cb 155 cb 1026,8 hPa 0,0 l/m 0,0 km/h (0 Bft) NW 318 0 min 0,000 mm 0,0 UV-I 0 W/m 7,7 C 8,9 C 0,0 km/h (0 Bft)
12.07.2020 03:09 8,9 C 7,2 C 12,2 C 14,4 C 15,6 C 92 % 9 lf 98 cb 200 cb 200 cb 155 cb 1026,9 hPa 0,0 l/m 0,0 km/h (0 Bft) NW 318 0 min 0,000 mm 0,0 UV-I 0 W/m 7,7 C 8,9 C 0,0 km/h (0 Bft)
12.07.2020 03:07 8,9 C 7,2 C 12,2 C 14,4 C 15,6 C 92 % 9 lf 98 cb 200 cb 200 cb 155 cb 1026,9 hPa 0,0 l/m 0,0 km/h (0 Bft) NW 318 0 min 0,000 mm 0,0 UV-I 0 W/m 7,7 C 8,9 C 0,0 km/h (0 Bft)
12.07.2020 03:05 8,9 C 7,2 C 12,2 C 14,4 C 15,6 C 92 % 9 lf 98 cb 200 cb 200 cb 155 cb 1026,8 hPa 0,0 l/m 0,0 km/h (0 Bft) NW 318 0 min 0,000 mm 0,0 UV-I 0 W/m 7,7 C 8,9 C 0,0 km/h (0 Bft)
12.07.2020 03:03 8,9 C 7,2 C 12,2 C 14,4 C 15,6 C 92 % 9 lf 98 cb 200 cb 200 cb 155 cb 1026,9 hPa 0,0 l/m 0,0 km/h (0 Bft) NW 318 0 min 0,000 mm 0,0 UV-I 0 W/m 7,7 C 8,9 C 0,0 km/h (0 Bft)
12.07.2020 03:01 9,0 C 7,2 C 12,2 C 14,4 C 15,6 C 92 % 9 lf 98 cb 200 cb 200 cb 155 cb 1026,9 hPa 0,0 l/m 0,0 km/h (0 Bft) NW 318 0 min 0,000 mm 0,0 UV-I 0 W/m 7,8 C 9,0 C 0,0 km/h (0 Bft)
12.07.2020 02:59 9,0 C 7,2 C 12,2 C 14,4 C 15,6 C 92 % 9 lf 99 cb 200 cb 200 cb 155 cb 1026,8 hPa 0,0 l/m 0,0 km/h (0 Bft) NW 318 0 min 0,000 mm 0,0 UV-I 0 W/m 7,8 C 9,0 C 0,0 km/h (0 Bft)
12.07.2020 02:57 9,0 C 7,2 C 12,2 C 14,4 C 15,6 C 92 % 9 lf 99 cb 200 cb 200 cb 155 cb 1026,9 hPa 0,0 l/m 0,0 km/h (0 Bft) NW 318 0 min 0,000 mm 0,0 UV-I 0 W/m 7,8 C 9,0 C 0,0 km/h (0 Bft)
12.07.2020 02:55 9,1 C 7,2 C 12,2 C 14,4 C 15,6 C 92 % 9 lf 98 cb 200 cb 200 cb 155 cb 1026,8 hPa 0,0 l/m 0,0 km/h (0 Bft) NW 318 0 min 0,000 mm 0,0 UV-I 0 W/m 7,9 C 9,1 C 0,0 km/h (0 Bft)
12.07.2020 02:53 9,1 C 7,2 C 12,2 C 14,4 C 15,6 C 92 % 9 lf 98 cb 200 cb 200 cb 155 cb 1026,8 hPa 0,0 l/m 0,0 km/h (0 Bft) NW 318 0 min 0,000 mm 0,0 UV-I 0 W/m 7,9 C 9,1 C 0,0 km/h (0 Bft)
12.07.2020 02:52 9,1 C 7,2 C 12,2 C 14,4 C 15,6 C 92 % 8 lf 98 cb 200 cb 200 cb 155 cb 1026,8 hPa 0,0 l/m 0,0 km/h (0 Bft) NW 318 0 min 0,000 mm 0,0 UV-I 0 W/m 7,9 C 9,1 C 0,0 km/h (0 Bft)
12.07.2020 02:51 9,1 C 7,2 C 12,2 C 14,4 C 15,6 C 92 % 8 lf 98 cb 200 cb 200 cb 155 cb 1026,8 hPa 0,0 l/m 0,0 km/h (0 Bft) NW 318 0 min 0,000 mm 0,0 UV-I 0 W/m 7,9 C 9,1 C 0,0 km/h (0 Bft)
12.07.2020 02:49 9,1 C 7,8 C 12,2 C 14,4 C 15,6 C 92 % 8 lf 99 cb 200 cb 200 cb 155 cb 1026,8 hPa 0,0 l/m 0,0 km/h (0 Bft) NW 318 0 min 0,000 mm 0,0 UV-I 0 W/m 7,9 C 9,1 C 0,0 km/h (0 Bft)
12.07.2020 02:47 9,0 C 7,8 C 12,2 C 14,4 C 15,6 C 92 % 8 lf 100 cb 200 cb 200 cb 155 cb 1026,8 hPa 0,0 l/m 0,0 km/h (0 Bft) NW 318 0 min 0,000 mm 0,0 UV-I 0 W/m 7,8 C 9,0 C 0,0 km/h (0 Bft)
12.07.2020 02:45 9,0 C 7,2 C 12,2 C 14,4 C 15,6 C 92 % 9 lf 99 cb 200 cb 200 cb 155 cb 1026,8 hPa 0,0 l/m 0,0 km/h (0 Bft) NW 318 0 min 0,000 mm 0,0 UV-I 0 W/m 7,8 C 9,0 C 0,0 km/h (0 Bft)
12.07.2020 02:43 8,9 C 7,2 C 12,2 C 14,4 C 15,6 C 92 % 9 lf 99 cb 200 cb 200 cb 155 cb 1026,8 hPa 0,0 l/m 0,0 km/h (0 Bft) NW 318 0 min 0,000 mm 0,0 UV-I 0 W/m 7,7 C 8,9 C 0,0 km/h (0 Bft)
12.07.2020 02:41 8,9 C 7,2 C 12,2 C 14,4 C 15,6 C 92 % 9 lf 99 cb 200 cb 200 cb 155 cb 1026,8 hPa 0,0 l/m 0,0 km/h (0 Bft) NW 318 0 min 0,000 mm 0,0 UV-I 0 W/m 7,7 C 8,9 C 0,0 km/h (0 Bft)
12.07.2020 02:39 8,9 C 7,2 C 12,2 C 15,0 C 15,6 C 92 % 9 lf 99 cb 200 cb 200 cb 155 cb 1026,8 hPa 0,0 l/m 0,0 km/h (0 Bft) NW 318 0 min 0,000 mm 0,0 UV-I 0 W/m 7,7 C 8,9 C 0,0 km/h (0 Bft)
12.07.2020 02:37 8,9 C 7,2 C 12,2 C 15,0 C 15,6 C 92 % 9 lf 99 cb 200 cb 200 cb 155 cb 1026,8 hPa 0,0 l/m 0,0 km/h (0 Bft) NW 318 0 min 0,000 mm 0,0 UV-I 0 W/m 7,7 C 8,9 C 0,0 km/h (0 Bft)
12.07.2020 02:35 8,9 C 7,2 C 12,2 C 15,0 C 15,6 C 92 % 9 lf 99 cb 200 cb 200 cb 155 cb 1026,8 hPa 0,0 l/m 0,0 km/h (0 Bft) NW 318 0 min 0,000 mm 0,0 UV-I 0 W/m 7,7 C 8,9 C 0,0 km/h (0 Bft)
12.07.2020 02:33 9,0 C 7,2 C 12,2 C 15,0 C 15,6 C 92 % 10 lf 99 cb 200 cb 200 cb 155 cb 1026,8 hPa 0,0 l/m 0,0 km/h (0 Bft) NW 318 0 min 0,000 mm 0,0 UV-I 0 W/m 7,8 C 9,0 C 0,0 km/h (0 Bft)
12.07.2020 02:31 9,0 C 7,2 C 12,2 C 15,0 C 15,6 C 92 % 9 lf 99 cb 200 cb 200 cb 155 cb 1026,8 hPa 0,0 l/m 0,0 km/h (0 Bft) NW 318 0 min 0,000 mm 0,0 UV-I 0 W/m 7,8 C 9,0 C 0,0 km/h (0 Bft)
12.07.2020 02:29 9,1 C 7,2 C 12,2 C 15,0 C 15,6 C 92 % 9 lf 99 cb 200 cb 200 cb 155 cb 1026,8 hPa 0,0 l/m 0,0 km/h (0 Bft) NW 318 0 min 0,000 mm 0,0 UV-I 0 W/m 7,9 C 9,1 C 0,0 km/h (0 Bft)
12.07.2020 02:27 9,1 C 7,2 C 12,2 C 15,0 C 15,6 C 92 % 9 lf 99 cb 200 cb 200 cb 155 cb 1026,8 hPa 0,0 l/m 0,0 km/h (0 Bft) NW 318 0 min 0,000 mm 0,0 UV-I 0 W/m 7,9 C 9,1 C 0,0 km/h (0 Bft)
12.07.2020 02:25 9,1 C 7,2 C 12,2 C 15,0 C 15,6 C 92 % 9 lf 99 cb 200 cb 200 cb 155 cb 1026,8 hPa 0,0 l/m 0,0 km/h (0 Bft) NW 318 0 min 0,000 mm 0,0 UV-I 0 W/m 7,9 C 9,1 C 0,0 km/h (0 Bft)
12.07.2020 02:23 9,2 C 7,2 C 12,2 C 15,0 C 15,6 C 92 % 9 lf 99 cb 200 cb 200 cb 155 cb 1026,8 hPa 0,0 l/m 0,0 km/h (0 Bft) NW 318 0 min 0,000 mm 0,0 UV-I 0 W/m 8,0 C 9,2 C 0,0 km/h (0 Bft)
12.07.2020 02:21 9,2 C 7,2 C 12,2 C 15,0 C 15,6 C 92 % 9 lf 99 cb 200 cb 200 cb 155 cb 1026,8 hPa 0,0 l/m 0,0 km/h (0 Bft) NW 318 0 min 0,000 mm 0,0 UV-I 0 W/m 8,0 C 9,2 C 0,0 km/h (0 Bft)
12.07.2020 02:19 9,2 C 7,2 C 12,8 C 15,0 C 15,6 C 92 % 9 lf 99 cb 200 cb 200 cb 155 cb 1026,9 hPa 0,0 l/m 0,0 km/h (0 Bft) NW 318 0 min 0,000 mm 0,0 UV-I 0 W/m 8,0 C 9,2 C 0,0 km/h (0 Bft)
12.07.2020 02:17 9,2 C 7,2 C 12,8 C 15,0 C 15,6 C 92 % 8 lf 99 cb 200 cb 200 cb 155 cb 1026,9 hPa 0,0 l/m 0,0 km/h (0 Bft) NW 318 0 min 0,000 mm 0,0 UV-I 0 W/m 8,0 C 9,2 C 0,0 km/h (0 Bft)
12.07.2020 02:16 9,2 C 7,8 C 12,8 C 15,0 C 15,6 C 92 % 8 lf 100 cb 200 cb 200 cb 155 cb 1026,9 hPa 0,0 l/m 0,0 km/h (0 Bft) NW 318 0 min 0,000 mm 0,0 UV-I 0 W/m 8,0 C 9,2 C 0,0 km/h (0 Bft)
12.07.2020 02:15 9,3 C 7,8 C 12,8 C 15,0 C 15,6 C 92 % 8 lf 100 cb 200 cb 200 cb 155 cb 1026,9 hPa 0,0 l/m 0,0 km/h (0 Bft) NW 318 0 min 0,000 mm 0,0 UV-I 0 W/m 8,1 C 9,3 C 0,0 km/h (0 Bft)
12.07.2020 02:12 9,3 C 7,8 C 12,8 C 15,0 C 16,1 C 92 % 7 lf 100 cb 200 cb 200 cb 156 cb 1026,9 hPa 0,0 l/m 0,0 km/h (0 Bft) NW 318 0 min 0,000 mm 0,0 UV-I 0 W/m 8,1 C 9,3 C 0,0 km/h (0 Bft)
12.07.2020 02:10 9,3 C 7,8 C 12,8 C 15,0 C 16,1 C 92 % 7 lf 100 cb 200 cb 200 cb 156 cb 1026,9 hPa 0,0 l/m 0,0 km/h (0 Bft) NW 318 0 min 0,000 mm 0,0 UV-I 0 W/m 8,1 C 9,3 C 0,0 km/h (0 Bft)
12.07.2020 02:08 9,3 C 7,8 C 12,8 C 15,0 C 16,1 C 92 % 7 lf 100 cb 200 cb 200 cb 156 cb 1026,9 hPa 0,0 l/m 0,0 km/h (0 Bft) NW 318 0 min 0,000 mm 0,0 UV-I 0 W/m 8,1 C 9,3 C 0,0 km/h (0 Bft)
12.07.2020 02:07 9,3 C 7,8 C 12,8 C 15,0 C 16,1 C 92 % 8 lf 100 cb 200 cb 200 cb 156 cb 1026,9 hPa 0,0 l/m 0,0 km/h (0 Bft) NW 318 0 min 0,000 mm 0,0 UV-I 0 W/m 8,1 C 9,3 C 0,0 km/h (0 Bft)
12.07.2020 02:06 9,3 C 7,8 C 12,8 C 15,0 C 16,1 C 92 % 8 lf 100 cb 200 cb 200 cb 156 cb 1026,9 hPa 0,0 l/m 0,0 km/h (0 Bft) NW 318 0 min 0,000 mm 0,0 UV-I 0 W/m 8,1 C 9,3 C 0,0 km/h (0 Bft)
12.07.2020 02:03 9,3 C 7,8 C 12,8 C 15,0 C 16,1 C 92 % 8 lf 100 cb 200 cb 200 cb 156 cb 1027,0 hPa 0,0 l/m 0,0 km/h (0 Bft) NW 318 0 min 0,000 mm 0,0 UV-I 0 W/m 8,1 C 9,3 C 0,0 km/h (0 Bft)
12.07.2020 02:01 9,3 C 7,8 C 12,8 C 15,0 C 16,1 C 92 % 9 lf 100 cb 200 cb 200 cb 156 cb 1027,0 hPa 0,0 l/m 0,0 km/h (0 Bft) NW 318 0 min 0,000 mm 0,0 UV-I 0 W/m 8,1 C 9,3 C 0,0 km/h (0 Bft)
12.07.2020 01:59 9,3 C 7,8 C 12,8 C 15,0 C 16,1 C 92 % 9 lf 100 cb 200 cb 200 cb 156 cb 1027,0 hPa 0,0 l/m 0,0 km/h (0 Bft) NW 318 0 min 0,000 mm 0,0 UV-I 0 W/m 8,1 C 9,3 C 0,0 km/h (0 Bft)
12.07.2020 01:57 9,3 C 7,8 C 12,8 C 15,0 C 16,1 C 92 % 9 lf 100 cb 200 cb 200 cb 156 cb 1027,0 hPa 0,0 l/m 0,0 km/h (0 Bft) NW 318 0 min 0,000 mm 0,0 UV-I 0 W/m 8,1 C 9,3 C 0,0 km/h (0 Bft)
12.07.2020 01:55 9,3 C 7,8 C 12,8 C 15,0 C 16,1 C 92 % 9 lf 100 cb 200 cb 200 cb 156 cb 1027,0 hPa 0,0 l/m 0,0 km/h (0 Bft) NW 318 0 min 0,000 mm 0,0 UV-I 0 W/m 8,1 C 9,3 C 0,0 km/h (0 Bft)
12.07.2020 01:53 9,4 C 7,8 C 12,8 C 15,0 C 16,1 C 92 % 8 lf 100 cb 200 cb 200 cb 156 cb 1027,0 hPa 0,0 l/m 0,0 km/h (0 Bft) NW 318 0 min 0,000 mm 0,0 UV-I 0 W/m 8,2 C 9,4 C 0,0 km/h (0 Bft)
12.07.2020 01:51 9,4 C 7,8 C 12,8 C 15,0 C 16,1 C 92 % 8 lf 100 cb 200 cb 200 cb 156 cb 1027,0 hPa 0,0 l/m 0,0 km/h (0 Bft) NW 318 0 min 0,000 mm 0,0 UV-I 0 W/m 8,2 C 9,4 C 0,0 km/h (0 Bft)
12.07.2020 01:49 9,4 C 7,2 C 12,8 C 15,0 C 16,1 C 91 % 8 lf 99 cb 200 cb 200 cb 156 cb 1027,0 hPa 0,0 l/m 0,0 km/h (0 Bft) NW 318 0 min 0,000 mm 0,0 UV-I 0 W/m 8,0 C 9,4 C 0,0 km/h (0 Bft)
12.07.2020 01:47 9,5 C 7,2 C 12,8 C 15,0 C 16,1 C 91 % 8 lf 99 cb 200 cb 200 cb 156 cb 1027,0 hPa 0,0 l/m 0,0 km/h (0 Bft) NW 318 0 min 0,000 mm 0,0 UV-I 0 W/m 8,1 C 9,5 C 0,0 km/h (0 Bft)
12.07.2020 01:45 9,6 C 7,2 C 12,8 C 15,0 C 16,1 C 91 % 7 lf 99 cb 200 cb 200 cb 156 cb 1027,0 hPa 0,0 l/m 0,0 km/h (0 Bft) NW 318 0 min 0,000 mm 0,0 UV-I 0 W/m 8,2 C 9,6 C 0,0 km/h (0 Bft)
12.07.2020 01:43 9,6 C 7,2 C 12,8 C 15,0 C 16,1 C 91 % 7 lf 99 cb 200 cb 200 cb 156 cb 1027,0 hPa 0,0 l/m 0,0 km/h (0 Bft) NW 318 0 min 0,000 mm 0,0 UV-I 0 W/m 8,2 C 9,6 C 0,0 km/h (0 Bft)
12.07.2020 01:41 9,6 C 7,2 C 12,8 C 15,0 C 16,1 C 91 % 6 lf 99 cb 200 cb 200 cb 156 cb 1027,0 hPa 0,0 l/m 0,0 km/h (0 Bft) NW 318 0 min 0,000 mm 0,0 UV-I 0 W/m 8,2 C 9,6 C 0,0 km/h (0 Bft)
12.07.2020 01:39 9,7 C 7,8 C 12,8 C 15,0 C 16,1 C 91 % 4 lf 100 cb 200 cb 200 cb 156 cb 1027,0 hPa 0,0 l/m 0,0 km/h (0 Bft) NW 318 0 min 0,000 mm 0,0 UV-I 0 W/m 8,3 C 9,7 C 0,0 km/h (0 Bft)
12.07.2020 01:38 9,7 C 7,8 C 12,8 C 15,0 C 16,1 C 91 % 4 lf 100 cb 200 cb 200 cb 156 cb 1027,0 hPa 0,0 l/m 0,0 km/h (0 Bft) NW 318 0 min 0,000 mm 0,0 UV-I 0 W/m 8,3 C 9,7 C 0,0 km/h (0 Bft)
12.07.2020 01:37 9,7 C 7,8 C 12,8 C 15,0 C 16,1 C 91 % 4 lf 100 cb 200 cb 200 cb 156 cb 1027,0 hPa 0,0 l/m 0,0 km/h (0 Bft) NW 318 0 min 0,000 mm 0,0 UV-I 0 W/m 8,3 C 9,7 C 0,0 km/h (0 Bft)
12.07.2020 01:34 9,8 C 7,8 C 12,8 C 15,0 C 16,1 C 92 % 4 lf 100 cb 200 cb 200 cb 156 cb 1027,0 hPa 0,0 l/m 0,0 km/h (0 Bft) NW 318 0 min 0,000 mm 0,0 UV-I 0 W/m 8,6 C 9,8 C 0,0 km/h (0 Bft)
12.07.2020 01:32 9,8 C 7,8 C 12,8 C 15,0 C 16,1 C 92 % 4 lf 100 cb 200 cb 200 cb 156 cb 1027,1 hPa 0,0 l/m 0,0 km/h (0 Bft) NW 318 0 min 0,000 mm 0,0 UV-I 0 W/m 8,6 C 9,8 C 0,0 km/h (0 Bft)
12.07.2020 01:30 9,8 C 7,8 C 12,8 C 15,0 C 16,1 C 92 % 4 lf 100 cb 200 cb 200 cb 156 cb 1027,1 hPa 0,0 l/m 0,0 km/h (0 Bft) NW 318 0 min 0,000 mm 0,0 UV-I 0 W/m 8,6 C 9,8 C 0,0 km/h (0 Bft)
12.07.2020 01:28 9,9 C 7,8 C 12,8 C 15,0 C 16,1 C 92 % 3 lf 100 cb 200 cb 200 cb 156 cb 1027,1 hPa 0,0 l/m 0,0 km/h (0 Bft) NW 318 0 min 0,000 mm 0,0 UV-I 0 W/m 8,7 C 9,9 C 0,0 km/h (0 Bft)
12.07.2020 01:26 9,9 C 7,8 C 12,8 C 15,6 C 16,1 C 92 % 3 lf 100 cb 200 cb 200 cb 156 cb 1027,1 hPa 0,0 l/m 0,0 km/h (0 Bft) NW 318 0 min 0,000 mm 0,0 UV-I 0 W/m 8,7 C 9,9 C 0,0 km/h (0 Bft)
12.07.2020 01:24 9,9 C 7,8 C 12,8 C 15,6 C 16,1 C 92 % 3 lf 100 cb 200 cb 200 cb 156 cb 1027,1 hPa 0,0 l/m 0,0 km/h (0 Bft) NW 318 0 min 0,000 mm 0,0 UV-I 0 W/m 8,7 C 9,9 C 0,0 km/h (0 Bft)
12.07.2020 01:22 9,9 C 8,3 C 12,8 C 15,6 C 16,1 C 92 % 3 lf 101 cb 200 cb 200 cb 156 cb 1027,0 hPa 0,0 l/m 0,0 km/h (0 Bft) NW 318 0 min 0,000 mm 0,0 UV-I 0 W/m 8,7 C 9,9 C 0,0 km/h (0 Bft)
12.07.2020 01:20 9,9 C 8,3 C 12,8 C 15,6 C 16,1 C 92 % 3 lf 101 cb 200 cb 200 cb 156 cb 1027,0 hPa 0,0 l/m 0,0 km/h (0 Bft) NW 318 0 min 0,000 mm 0,0 UV-I 0 W/m 8,7 C 9,9 C 0,0 km/h (0 Bft)
12.07.2020 01:19 9,9 C 8,3 C 12,8 C 15,6 C 16,1 C 92 % 3 lf 101 cb 200 cb 200 cb 156 cb 1027,1 hPa 0,0 l/m 0,0 km/h (0 Bft) NW 318 0 min 0,000 mm 0,0 UV-I 0 W/m 8,7 C 9,9 C 0,0 km/h (0 Bft)
12.07.2020 01:18 9,9 C 8,3 C 13,3 C 15,6 C 16,1 C 92 % 3 lf 101 cb 200 cb 200 cb 156 cb 1027,1 hPa 0,0 l/m 0,0 km/h (0 Bft) NW 318 0 min 0,000 mm 0,0 UV-I 0 W/m 8,7 C 9,9 C 0,0 km/h (0 Bft)
12.07.2020 01:15 9,9 C 7,8 C 13,3 C 15,6 C 16,1 C 91 % 4 lf 100 cb 200 cb 200 cb 156 cb 1027,1 hPa 0,0 l/m 0,0 km/h (0 Bft) NW 318 0 min 0,000 mm 0,0 UV-I 0 W/m 8,5 C 9,9 C 0,0 km/h (0 Bft)
12.07.2020 01:13 9,9 C 7,8 C 13,3 C 15,6 C 16,1 C 91 % 4 lf 100 cb 200 cb 200 cb 156 cb 1027,1 hPa 0,0 l/m 0,0 km/h (0 Bft) NW 318 0 min 0,000 mm 0,0 UV-I 0 W/m 8,5 C 9,9 C 0,0 km/h (0 Bft)
12.07.2020 01:11 9,9 C 7,8 C 13,3 C 15,6 C 16,1 C 91 % 4 lf 100 cb 200 cb 200 cb 156 cb 1027,1 hPa 0,0 l/m 0,0 km/h (0 Bft) NW 318 0 min 0,000 mm 0,0 UV-I 0 W/m 8,5 C 9,9 C 0,0 km/h (0 Bft)
12.07.2020 01:09 9,9 C 7,8 C 13,3 C 15,6 C 16,1 C 91 % 4 lf 100 cb 200 cb 200 cb 156 cb 1027,1 hPa 0,0 l/m 0,0 km/h (0 Bft) NW 318 0 min 0,000 mm 0,0 UV-I 0 W/m 8,5 C 9,9 C 0,0 km/h (0 Bft)
12.07.2020 01:07 10,0 C 7,8 C 13,3 C 15,6 C 16,1 C 91 % 3 lf 100 cb 200 cb 200 cb 156 cb 1027,1 hPa 0,0 l/m 0,0 km/h (0 Bft) NW 318 0 min 0,000 mm 0,0 UV-I 0 W/m 8,6 C 10,0 C 0,0 km/h (0 Bft)
12.07.2020 01:05 10,0 C 7,8 C 13,3 C 15,6 C 16,1 C 91 % 3 lf 100 cb 200 cb 200 cb 156 cb 1027,1 hPa 0,0 l/m 0,0 km/h (0 Bft) NW 318 0 min 0,000 mm 0,0 UV-I 0 W/m 8,6 C 10,0 C 0,0 km/h (0 Bft)
12.07.2020 01:03 10,1 C 7,8 C 13,3 C 15,6 C 16,1 C 91 % 3 lf 100 cb 200 cb 200 cb 156 cb 1026,9 hPa 0,0 l/m 0,0 km/h (0 Bft) NW 318 0 min 0,000 mm 0,0 UV-I 0 W/m 8,7 C 10,1 C 0,0 km/h (0 Bft)
12.07.2020 01:01 10,1 C 8,3 C 13,3 C 15,6 C 16,1 C 92 % 3 lf 101 cb 200 cb 200 cb 156 cb 1027,0 hPa 0,0 l/m 0,0 km/h (0 Bft) NW 318 0 min 0,000 mm 0,0 UV-I 0 W/m 8,9 C 10,1 C 0,0 km/h (0 Bft)
12.07.2020 00:59 10,1 C 8,3 C 13,3 C 15,6 C 16,1 C 92 % 3 lf 101 cb 200 cb 200 cb 156 cb 1027,0 hPa 0,0 l/m 0,0 km/h (0 Bft) NW 318 0 min 0,000 mm 0,0 UV-I 0 W/m 8,9 C 10,1 C 0,0 km/h (0 Bft)
12.07.2020 00:57 10,1 C 8,3 C 13,3 C 15,6 C 16,1 C 92 % 3 lf 101 cb 200 cb 200 cb 156 cb 1026,9 hPa 0,0 l/m 0,0 km/h (0 Bft) NW 318 0 min 0,000 mm 0,0 UV-I 0 W/m 8,9 C 10,1 C 0,0 km/h (0 Bft)
12.07.2020 00:55 10,1 C 8,3 C 13,3 C 15,6 C 16,1 C 92 % 3 lf 101 cb 200 cb 200 cb 156 cb 1027,0 hPa 0,0 l/m 0,0 km/h (0 Bft) NW 318 0 min 0,000 mm 0,0 UV-I 0 W/m 8,9 C 10,1 C 0,0 km/h (0 Bft)
12.07.2020 00:53 10,1 C 8,3 C 13,3 C 15,6 C 16,1 C 92 % 3 lf 101 cb 200 cb 200 cb 156 cb 1027,0 hPa 0,0 l/m 0,0 km/h (0 Bft) NW 318 0 min 0,000 mm 0,0 UV-I 0 W/m 8,9 C 10,1 C 0,0 km/h (0 Bft)
12.07.2020 00:51 10,1 C 8,3 C 13,3 C 15,6 C 16,1 C 92 % 3 lf 101 cb 200 cb 200 cb 156 cb 1027,0 hPa 0,0 l/m 0,0 km/h (0 Bft) NW 318 0 min 0,000 mm 0,0 UV-I 0 W/m 8,9 C 10,1 C 0,0 km/h (0 Bft)
12.07.2020 00:49 10,1 C 8,3 C 13,3 C 15,6 C 16,1 C 92 % 3 lf 101 cb 200 cb 200 cb 156 cb 1027,0 hPa 0,0 l/m 0,0 km/h (0 Bft) NW 318 0 min 0,000 mm 0,0 UV-I 0 W/m 8,9 C 10,1 C 0,0 km/h (0 Bft)
12.07.2020 00:47 10,1 C 8,3 C 13,3 C 15,6 C 16,1 C 92 % 3 lf 101 cb 200 cb 200 cb 156 cb 1027,0 hPa 0,0 l/m 0,0 km/h (0 Bft) NW 318 0 min 0,000 mm 0,0 UV-I 0 W/m 8,9 C 10,1 C 0,0 km/h (0 Bft)
12.07.2020 00:45 10,1 C 8,3 C 13,3 C 15,6 C 16,1 C 91 % 3 lf 101 cb 200 cb 200 cb 156 cb 1027,0 hPa 0,0 l/m 0,0 km/h (0 Bft) NW 318 0 min 0,000 mm 0,0 UV-I 0 W/m 8,7 C 10,1 C 0,0 km/h (0 Bft)
12.07.2020 00:43 10,1 C 8,3 C 13,3 C 15,6 C 16,1 C 91 % 3 lf 102 cb 200 cb 200 cb 156 cb 1027,0 hPa 0,0 l/m 0,0 km/h (0 Bft) NW 318 0 min 0,000 mm 0,0 UV-I 0 W/m 8,7 C 10,1 C 0,0 km/h (0 Bft)
12.07.2020 00:42 10,1 C 8,3 C 13,3 C 15,6 C 16,1 C 91 % 3 lf 102 cb 200 cb 200 cb 156 cb 1027,0 hPa 0,0 l/m 0,0 km/h (0 Bft) NW 318 0 min 0,000 mm 0,0 UV-I 0 W/m 8,7 C 10,1 C 0,0 km/h (0 Bft)
12.07.2020 00:41 10,1 C 8,3 C 13,3 C 15,6 C 16,1 C 91 % 3 lf 102 cb 200 cb 200 cb 156 cb 1027,0 hPa 0,0 l/m 0,0 km/h (0 Bft) NW 318 0 min 0,000 mm 0,0 UV-I 0 W/m 8,7 C 10,1 C 0,0 km/h (0 Bft)
12.07.2020 00:39 10,1 C 8,3 C 13,3 C 15,6 C 16,7 C 91 % 3 lf 102 cb 200 cb 200 cb 158 cb 1027,0 hPa 0,0 l/m 0,0 km/h (0 Bft) NW 318 0 min 0,000 mm 0,0 UV-I 0 W/m 8,7 C 10,1 C 0,0 km/h (0 Bft)
12.07.2020 00:37 10,1 C 8,3 C 13,3 C 15,6 C 16,7 C 91 % 3 lf 102 cb 200 cb 200 cb 158 cb 1026,9 hPa 0,0 l/m 0,0 km/h (0 Bft) NW 318 0 min 0,000 mm 0,0 UV-I 0 W/m 8,7 C 10,1 C 0,0 km/h (0 Bft)
12.07.2020 00:35 10,1 C 8,3 C 13,3 C 15,6 C 16,7 C 91 % 3 lf 102 cb 200 cb 200 cb 158 cb 1026,9 hPa 0,0 l/m 0,0 km/h (0 Bft) NW 318 0 min 0,000 mm 0,0 UV-I 0 W/m 8,7 C 10,1 C 0,0 km/h (0 Bft)
12.07.2020 00:33 10,1 C 8,3 C 13,3 C 15,6 C 16,7 C 91 % 3 lf 102 cb 200 cb 200 cb 157 cb 1026,9 hPa 0,0 l/m 0,0 km/h (0 Bft) NW 318 0 min 0,000 mm 0,0 UV-I 0 W/m 8,7 C 10,1 C 0,0 km/h (0 Bft)
12.07.2020 00:31 10,1 C 8,3 C 13,3 C 15,6 C 16,7 C 91 % 3 lf 102 cb 200 cb 200 cb 158 cb 1026,9 hPa 0,0 l/m 0,0 km/h (0 Bft) NW 318 0 min 0,000 mm 0,0 UV-I 0 W/m 8,7 C 10,1 C 0,0 km/h (0 Bft)
12.07.2020 00:29 10,1 C 8,3 C 13,3 C 16,1 C 16,7 C 91 % 3 lf 102 cb 200 cb 200 cb 158 cb 1026,9 hPa 0,0 l/m 0,0 km/h (0 Bft) NW 318 0 min 0,000 mm 0,0 UV-I 0 W/m 8,7 C 10,1 C 0,0 km/h (0 Bft)
12.07.2020 00:27 10,2 C 8,3 C 13,3 C 16,1 C 16,7 C 90 % 3 lf 102 cb 200 cb 200 cb 158 cb 1026,9 hPa 0,0 l/m 0,0 km/h (0 Bft) NW 318 0 min 0,000 mm 0,0 UV-I 0 W/m 8,6 C 10,2 C 0,0 km/h (0 Bft)
12.07.2020 00:25 10,2 C 8,3 C 13,3 C 16,1 C 16,7 C 90 % 3 lf 102 cb 200 cb 200 cb 158 cb 1027,0 hPa 0,0 l/m 0,0 km/h (0 Bft) NW 318 0 min 0,000 mm 0,0 UV-I 0 W/m 8,6 C 10,2 C 0,0 km/h (0 Bft)
12.07.2020 00:23 10,2 C 8,3 C 13,9 C 16,1 C 16,7 C 91 % 3 lf 102 cb 200 cb 200 cb 158 cb 1026,9 hPa 0,0 l/m 0,0 km/h (0 Bft) NW 318 0 min 0,000 mm 0,0 UV-I 0 W/m 8,8 C 10,2 C 0,0 km/h (0 Bft)
12.07.2020 00:21 10,2 C 8,3 C 13,9 C 16,1 C 16,7 C 90 % 3 lf 102 cb 200 cb 200 cb 158 cb 1027,0 hPa 0,0 l/m 0,0 km/h (0 Bft) NW 318 0 min 0,000 mm 0,0 UV-I 0 W/m 8,6 C 10,2 C 0,0 km/h (0 Bft)
12.07.2020 00:19 10,2 C 8,3 C 13,9 C 16,1 C 16,7 C 90 % 3 lf 102 cb 200 cb 200 cb 158 cb 1026,9 hPa 0,0 l/m 0,0 km/h (0 Bft) NW 318 0 min 0,000 mm 0,0 UV-I 0 W/m 8,6 C 10,2 C 0,0 km/h (0 Bft)
12.07.2020 00:17 10,3 C 8,3 C 13,9 C 16,1 C 16,7 C 90 % 3 lf 102 cb 200 cb 200 cb 158 cb 1026,9 hPa 0,0 l/m 0,0 km/h (0 Bft) NW 318 0 min 0,000 mm 0,0 UV-I 0 W/m 8,7 C 10,3 C 0,0 km/h (0 Bft)
12.07.2020 00:15 10,3 C 8,3 C 13,9 C 16,1 C 16,7 C 90 % 3 lf 102 cb 200 cb 200 cb 157 cb 1026,9 hPa 0,0 l/m 0,0 km/h (0 Bft) NW 318 0 min 0,000 mm 0,0 UV-I 0 W/m 8,7 C 10,3 C 0,0 km/h (0 Bft)
12.07.2020 00:13 10,3 C 8,3 C 13,9 C 16,1 C 16,7 C 90 % 3 lf 102 cb 200 cb 200 cb 157 cb 1026,9 hPa 0,0 l/m 0,0 km/h (0 Bft) NW 318 0 min 0,000 mm 0,0 UV-I 0 W/m 8,7 C 10,3 C 0,0 km/h (0 Bft)
12.07.2020 00:11 10,3 C 8,3 C 13,9 C 16,1 C 16,7 C 90 % 3 lf 102 cb 200 cb 200 cb 157 cb 1026,9 hPa 0,0 l/m 0,0 km/h (0 Bft) NW 318 0 min 0,000 mm 0,0 UV-I 0 W/m 8,7 C 10,3 C 0,0 km/h (0 Bft)
12.07.2020 00:09 10,3 C 8,9 C 13,9 C 16,1 C 16,7 C 90 % 3 lf 103 cb 200 cb 200 cb 157 cb 1026,9 hPa 0,0 l/m 0,0 km/h (0 Bft) NW 318 0 min 0,000 mm 0,0 UV-I 0 W/m 8,7 C 10,3 C 0,0 km/h (0 Bft)
12.07.2020 00:07 10,4 C 8,3 C 13,9 C 16,1 C 16,7 C 89 % 3 lf 102 cb 200 cb 200 cb 157 cb 1026,9 hPa 0,0 l/m 0,0 km/h (0 Bft) NW 318 0 min 0,000 mm 0,0 UV-I 0 W/m 8,7 C 10,4 C 0,0 km/h (0 Bft)
12.07.2020 00:05 10,4 C 8,9 C 13,9 C 16,1 C 16,7 C 90 % 3 lf 103 cb 200 cb 200 cb 157 cb 1026,9 hPa 0,0 l/m 0,0 km/h (0 Bft) NW 318 0 min 0,000 mm 0,0 UV-I 0 W/m 8,8 C 10,4 C 0,0 km/h (0 Bft)
12.07.2020 00:03 10,4 C 8,3 C 13,9 C 16,1 C 16,7 C 89 % 3 lf 102 cb 200 cb 200 cb 157 cb 1026,9 hPa 0,0 l/m 0,0 km/h (0 Bft) NW 318 0 min 0,000 mm 0,0 UV-I 0 W/m 8,7 C 10,4 C 0,0 km/h (0 Bft)
12.07.2020 00:01 10,4 C 8,3 C 13,9 C 16,1 C 16,7 C 89 % 3 lf 102 cb 200 cb 200 cb 157 cb 1026,8 hPa 0,0 l/m 0,0 km/h (0 Bft) NW 318 0 min 0,000 mm 0,0 UV-I 0 W/m 8,7 C 10,4 C 0,0 km/h (0 Bft)
_ Min-Zeit 04:47 03:23 04:49 05:31 07:33 15:07 07:39 08:03 00:01 10:21 07:33 03:47 - 00:01 - - - - - - 03:37 04:43 00:01
Minimum _ 8,4 C 6,7 C 11,1 C 13,3 C 13,9 C 57 % 0 lf 91 cb 200 cb 174 cb 151 cb 1026,7 hPa - 0,0 km/h (0 Bft) - - - - - - 7,4 C 8,5 C 0,0 km/h (0 Bft)
_ Max-Zeit 14:59 14:55 14:55 14:39 14:47 06:23 04:27 14:55 00:01 00:01 14:47 11:47 00:01 10:13 - - 08:02 14:01 13:45 14:53 14:37 14:59 13:45
Maximum _ 18,9 C 33,3 C 23,9 C 19,4 C 17,2 C 95 % 15 lf 138 cb 200 cb 200 cb 161 cb 1028,6 hPa 0,0 l/m 7,6 km/h
O-NO (2 Bft)
- - 3 min 0,381 mm 7,1 UV-I 1067 W/m 11,9 C 18,9 C 17,7 km/h
N-NO (3 Bft)
Durchschnitt _ 12,2 C 14,4 C 14,9 C 15,2 C 15,3 C 84 % 5 lf 102 cb 200 cb 189 cb 154 cb 1027,6 hPa #0,0 l/m 0,7 km/h (0 Bft) O-NO - #4:48 h #1,727 mm 2,9 UV-I 338 W/m 9,4 C 12,2 C 3,0 km/h (1 Bft)